Data for 05/10/2012

Time Sea-Level Adjusted Pressure Absolute Pressure Temperature Relative Humidity Dew Point Precipitation   
(mb) (inHg) (mb) (inHg) (C) (F) (%) (C) (F) (mm) (in)
00:01 1014 29.94 843 24.89 10.2 50.3 59 2.6 36.6 0 0
00:02 1014 29.94 843 24.89 10.2 50.4 58 2.5 36.5 0 0
00:03 1014 29.94 843 24.89 10.3 50.5 58 2.4 36.4 0 0
00:04 1014 29.94 843 24.89 10.3 50.6 58 2.4 36.3 0 0
00:05 1014 29.94 843 24.89 10.4 50.6 57 2.3 36.1 0 0
00:06 1014 29.94 843 24.89 10.4 50.7 58 2.5 36.5 0 0
00:07 1014 29.94 843 24.89 10.3 50.5 58 2.5 36.6 0 0
00:08 1014 29.94 843 24.89 10.2 50.3 59 2.6 36.7 0 0
00:09 1014 29.94 843 24.89 10 50 60 2.6 36.7 0 0
00:10 1014 29.94 843 24.89 9.8 49.6 61 2.7 36.9 0 0
00:11 1014 29.94 843 24.89 9.5 49.1 62 2.7 36.8 0 0
00:12 1014 29.94 843 24.89 9.2 48.6 63 2.5 36.5 0 0
00:13 1014 29.94 843 24.89 9 48.3 63 2.4 36.3 0 0
00:14 1014 29.94 843 24.89 9 48.1 63 2.2 36 0 0
00:15 1014 29.94 843 24.89 8.9 48 62 2 35.6 0 0
00:16 1014 29.94 843 24.89 8.8 47.9 62 1.9 35.4 0 0
00:17 1014 29.94 843 24.89 8.8 47.9 61 1.8 35.2 0 0
00:18 1014 29.94 843 24.89 8.9 48 61 1.8 35.2 0 0
00:19 1014 29.94 843 24.89 9 48.2 60 1.8 35.2 0 0
00:20 1014 29.94 843 24.89 9.1 48.4 60 1.7 35 0 0
00:21 1014 29.94 843 24.89 9.2 48.6 59 1.6 34.8 0 0
00:22 1014 29.94 843 24.89 9.3 48.8 58 1.6 34.9 0 0
00:23 1013 29.91 843 24.89 9.5 49 58 1.6 34.8 0 0
00:24 1013 29.91 843 24.89 9.5 49.1 58 1.6 35 0 0
00:25 1013 29.91 843 24.89 9.5 49.1 58 1.7 35 0 0
00:26 1013 29.91 843 24.89 9.5 49 58 1.7 35 0 0
00:27 1013 29.91 843 24.89 9.4 48.9 59 1.7 35.1 0 0
00:28 1013 29.91 843 24.89 9.2 48.6 60 1.8 35.2 0 0
00:29 1013 29.91 843 24.89 9.1 48.4 60 1.8 35.3 0 0
00:30 1013 29.91 843 24.89 8.9 48.1 61 1.8 35.2 0 0
00:31 1013 29.91 843 24.89 8.9 47.9 61 1.7 35.1 0 0
00:32 1013 29.91 843 24.89 8.8 47.8 60 1.6 34.8 0 0
00:33 1013 29.91 843 24.89 8.8 47.9 60 1.5 34.8 0 0
00:34 1013 29.91 843 24.89 8.9 48 60 1.6 34.8 0 0
00:35 1013 29.91 843 24.89 8.9 48 60 1.5 34.8 0 0
00:36 1013 29.91 843 24.89 8.9 48 60 1.6 34.8 0 0
00:37 1013 29.91 843 24.89 8.8 47.8 60 1.5 34.7 0 0
00:38 1013 29.91 843 24.89 8.7 47.6 60 1.5 34.7 0 0
00:39 1013 29.91 843 24.89 8.6 47.4 60 1.3 34.3 0 0
00:40 1013 29.91 843 24.89 8.6 47.5 60 1.3 34.3 0 0
00:41 1013 29.91 843 24.89 8.7 47.6 59 1.1 34 0 0
00:42 1013 29.91 843 24.89 8.8 47.8 58 0.9 33.6 0 0
00:43 1013 29.91 842 24.86 8.9 48 57 1 33.7 0 0
00:44 1013 29.91 843 24.89 9 48.1 57 1 33.9 0 0
00:45 1013 29.91 843 24.89 9 48.1 57 1.1 33.9 0 0
00:46 1013 29.91 843 24.89 8.9 48.1 58 1.2 34.1 0 0
00:47 1013 29.91 843 24.89 8.8 47.8 59 1.3 34.4 0 0
00:48 1013 29.91 843 24.89 8.5 47.3 61 1.4 34.6 0 0
00:49 1013 29.91 843 24.89 8.2 46.7 63 1.5 34.7 0 0
00:50 1013 29.91 843 24.89 7.8 46 64 1.4 34.6 0 0
00:51 1013 29.91 843 24.89 7.4 45.4 65 1.4 34.5 0 0
00:52 1013 29.91 843 24.89 7.2 44.9 66 1.3 34.3 0 0
00:53 1013 29.91 843 24.89 7.1 44.8 65 1 33.9 0 0
00:54 1013 29.91 843 24.89 7.2 45 65 1 33.9 0 0
00:55 1013 29.91 842 24.86 7.3 45.1 65 1.1 34.1 0 0
00:56 1013 29.91 842 24.86 7.3 45.1 65 1.2 34.2 0 0
00:57 1013 29.91 842 24.86 7.3 45.1 66 1.3 34.4 0 0
00:58 1013 29.91 842 24.86 7.2 45 66 1.3 34.3 0 0
00:59 1013 29.91 842 24.86 7.2 45 66 1.2 34.2 0 0
01:00 1013 29.91 842 24.86 7.2 45 65 1.1 34 0 0
01:01 1013 29.91 842 24.86 7.3 45.2 65 1.2 34.1 0 0
01:02 1013 29.91 842 24.86 7.3 45.1 64 1 33.8 0 0
01:03 1013 29.91 842 24.86 7.4 45.3 64 1 33.9 0 0
01:04 1013 29.91 842 24.86 7.4 45.3 64 1.2 34.1 0 0
01:05 1013 29.91 842 24.86 7.4 45.3 65 1.2 34.2 0 0
01:06 1013 29.91 843 24.89 7.4 45.2 65 1.3 34.3 0 0
01:07 1013 29.91 843 24.89 7.3 45.1 66 1.4 34.4 0 0
01:08 1013 29.91 843 24.89 7.2 45 67 1.4 34.6 0 0
01:09 1013 29.91 843 24.89 7.2 44.9 67 1.5 34.8 0 0
01:10 1013 29.91 843 24.89 7.1 44.7 67 1.4 34.5 0 0
01:11 1013 29.91 843 24.89 7.1 44.8 68 1.5 34.8 0 0
01:12 1013 29.91 843 24.89 7.1 44.7 68 1.6 35 0 0
01:13 1014 29.94 843 24.89 7.1 44.7 69 1.7 35 0 0
01:14 1014 29.94 843 24.89 7 44.6 69 1.7 35.1 0 0
01:15 1014 29.94 843 24.89 7 44.6 69 1.8 35.3 0 0
01:16 1014 29.94 843 24.89 7.1 44.7 70 1.9 35.4 0 0
01:17 1014 29.94 843 24.89 7.1 44.7 69 1.9 35.4 0 0
01:18 1014 29.94 843 24.89 7.1 44.9 69 1.9 35.4 0 0
01:19 1014 29.94 843 24.89 7.3 45.1 69 2 35.6 0 0
01:20 1014 29.94 843 24.89 7.3 45.2 69 2.1 35.8 0 0
01:21 1014 29.94 843 24.89 7.5 45.4 69 2.2 36 0 0
01:22 1013 29.91 843 24.89 7.5 45.5 69 2.2 35.9 0 0
01:23 1014 29.94 843 24.89 7.6 45.6 68 1.9 35.5 0 0
01:24 1014 29.94 843 24.89 7.7 45.9 67 2.1 35.7 0 0
01:25 1014 29.94 843 24.89 7.9 46.1 68 2.3 36.1 0 0
01:26 1014 29.94 843 24.89 7.9 46.2 67 2.2 36 0 0
01:27 1014 29.94 843 24.89 8 46.4 67 2.3 36.1 0 0
01:28 1014 29.94 843 24.89 8.1 46.6 66 2.3 36.1 0 0
01:29 1014 29.94 843 24.89 8.2 46.7 66 2.3 36.1 0 0
01:30 1014 29.94 843 24.89 8.2 46.8 66 2.4 36.3 0 0
01:31 1014 29.94 843 24.89 8.3 46.9 66 2.4 36.3 0 0
01:32 1014 29.94 843 24.89 8.3 46.9 66 2.4 36.3 0 0
01:33 1014 29.94 843 24.89 8.3 46.9 66 2.4 36.3 0 0
01:34 1014 29.94 843 24.89 8.4 47 64 1.9 35.5 0 0
01:35 1014 29.94 843 24.89 8.6 47.4 64 2.1 35.8 0 0
01:36 1014 29.94 843 24.89 8.7 47.6 63 2.2 35.9 0 0
01:37 1014 29.94 843 24.89 8.8 47.9 63 2.2 36 0 0
01:38 1014 29.94 843 24.89 8.9 48.1 61 1.9 35.4 0 0
01:39 1013 29.91 843 24.89 9 48.2 60 1.7 35 0 0
01:40 1013 29.91 843 24.89 9.2 48.5 59 1.6 34.9 0 0
01:41 1013 29.91 842 24.86 9.3 48.7 58 1.4 34.6 0 0
01:42 1013 29.91 842 24.86 9.4 48.9 58 1.6 34.9 0 0
01:43 1013 29.91 842 24.86 9.5 49.1 57 1.6 34.8 0 0
01:44 1013 29.91 843 24.89 9.5 49.1 58 1.8 35.2 0 0
01:45 1013 29.91 843 24.89 9.5 49 59 1.8 35.3 0 0
01:46 1014 29.94 843 24.89 9.3 48.8 60 1.9 35.5 0 0
01:47 1014 29.94 843 24.89 9.2 48.5 60 1.8 35.2 0 0
01:48 1014 29.94 843 24.89 9.1 48.4 60 1.8 35.2 0 0
01:49 1014 29.94 843 24.89 9.1 48.3 59 1.5 34.7 0 0
01:50 1014 29.94 843 24.89 9.1 48.5 59 1.5 34.7 0 0
01:51 1014 29.94 843 24.89 9.3 48.7 59 1.6 34.9 0 0
01:52 1014 29.94 843 24.89 9.3 48.8 58 1.5 34.7 0 0
01:53 1014 29.94 843 24.89 9.5 49 57 1.4 34.5 0 0
01:54 1014 29.94 843 24.89 9.7 49.4 56 1.3 34.4 0 0
01:55 1014 29.94 843 24.89 9.8 49.7 55 1.3 34.3 0 0
01:56 1014 29.94 843 24.89 10 50 56 1.8 35.2 0 0
01:57 1014 29.94 843 24.89 10 50 56 1.6 35 0 0
01:58 1014 29.94 843 24.89 10 50.1 54 1.2 34.1 0 0
01:59 1014 29.94 843 24.89 10.1 50.2 55 1.5 34.7 0 0
02:00 1014 29.94 843 24.89 10.2 50.4 56 1.8 35.2 0 0
02:01 1014 29.94 844 24.92 10.2 50.3 56 1.9 35.4 0 0
02:02 1014 29.94 844 24.92 10.1 50.1 56 1.8 35.3 0 0
02:03 1014 29.94 844 24.92 10.1 50.1 56 1.6 34.9 0 0
02:04 1014 29.94 844 24.92 10.1 50.2 55 1.6 34.9 0 0
02:05 1014 29.94 844 24.92 10.2 50.3 56 1.8 35.3 0 0
02:06 1014 29.94 844 24.92 10.2 50.3 55 1.6 34.9 0 0
02:07 1014 29.94 844 24.92 10.2 50.3 55 1.6 34.9 0 0
02:08 1014 29.94 844 24.92 10.2 50.4 56 1.9 35.3 0 0
02:09 1014 29.94 844 24.92 10.2 50.4 54 1.3 34.4 0 0
02:10 1014 29.94 843 24.89 10.2 50.4 53 1.2 34.1 0 0
02:11 1014 29.94 843 24.89 10.3 50.5 54 1.3 34.4 0 0
02:12 1014 29.94 843 24.89 10.3 50.6 54 1.5 34.7 0 0
02:13 1014 29.94 843 24.89 10.3 50.5 56 1.9 35.4 0 0
02:14 1014 29.94 843 24.89 10.1 50.2 56 1.7 35.1 0 0
02:15 1014 29.94 843 24.89 10 49.9 56 1.7 35 0 0
02:16 1014 29.94 843 24.89 9.8 49.7 57 1.7 35 0 0
02:17 1014 29.94 843 24.89 9.7 49.5 57 1.7 35.1 0 0
02:18 1014 29.94 843 24.89 9.6 49.2 57 1.5 34.7 0 0
02:19 1014 29.94 843 24.89 9.5 49.1 57 1.5 34.7 0 0
02:20 1014 29.94 843 24.89 9.4 48.9 58 1.6 34.9 0 0
02:21 1014 29.94 843 24.89 9.2 48.6 58 1.5 34.7 0 0
02:22 1014 29.94 843 24.89 9.1 48.4 59 1.5 34.7 0 0
02:23 1014 29.94 843 24.89 9 48.2 59 1.5 34.7 0 0
02:24 1014 29.94 843 24.89 8.8 47.9 60 1.5 34.7 0 0
02:25 1014 29.94 843 24.89 8.7 47.7 60 1.5 34.7 0 0
02:26 1014 29.94 843 24.89 8.5 47.2 61 1.4 34.5 0 0
02:27 1014 29.94 843 24.89 8.2 46.8 62 1.4 34.5 0 0
02:28 1014 29.94 843 24.89 7.9 46.3 64 1.5 34.7 0 0
02:29 1014 29.94 843 24.89 7.6 45.6 66 1.5 34.8 0 0
02:30 1014 29.94 843 24.89 7.3 45.2 66 1.5 34.6 0 0
02:31 1014 29.94 843 24.89 7.2 44.9 67 1.4 34.6 0 0
02:32 1014 29.94 843 24.89 7.1 44.7 67 1.4 34.6 0 0
02:33 1014 29.94 843 24.89 7 44.6 67 1.3 34.3 0 0
02:34 1014 29.94 843 24.89 7.1 44.7 67 1.4 34.5 0 0
02:35 1014 29.94 843 24.89 7.2 44.9 65 1.1 34.1 0 0
02:36 1014 29.94 843 24.89 7.3 45.2 65 1.2 34.2 0 0
02:37 1014 29.94 843 24.89 7.5 45.6 64 1.1 34 0 0
02:38 1014 29.94 843 24.89 7.7 45.9 63 1.2 34.2 0 0
02:39 1014 29.94 843 24.89 8 46.4 62 1.1 34 0 0
02:40 1014 29.94 843 24.89 8.3 46.9 61 1.3 34.3 0 0
02:41 1014 29.94 843 24.89 8.4 47.2 61 1.4 34.4 0 0
02:42 1014 29.94 843 24.89 8.5 47.4 61 1.5 34.7 0 0
02:43 1014 29.94 843 24.89 8.5 47.3 62 1.6 35 0 0
02:44 1014 29.94 843 24.89 8.5 47.2 62 1.7 35.1 0 0
02:45 1014 29.94 843 24.89 8.4 47.1 64 2 35.5 0 0
02:46 1014 29.94 843 24.89 8.2 46.8 64 1.8 35.3 0 0
02:47 1014 29.94 843 24.89 8.1 46.5 63 1.5 34.7 0 0
02:48 1014 29.94 843 24.89 8.2 46.7 62 1.3 34.4 0 0
02:49 1014 29.94 843 24.89 8.3 47 60 1.1 34.1 0 0
02:50 1014 29.94 843 24.89 8.5 47.2 60 1.1 34 0 0
02:51 1014 29.94 843 24.89 8.6 47.4 61 1.5 34.6 0 0
02:52 1014 29.94 843 24.89 8.6 47.6 60 1.3 34.3 0 0
02:53 1014 29.94 843 24.89 8.8 47.8 59 1.3 34.3 0 0
02:54 1014 29.94 843 24.89 8.8 47.9 58 1 33.8 0 0
02:55 1014 29.94 843 24.89 8.9 48.1 58 1.2 34.2 0 0
02:56 1014 29.94 843 24.89 9 48.2 58 1.1 34 0 0
02:57 1014 29.94 843 24.89 9.2 48.5 56 0.9 33.6 0 0
02:58 1014 29.94 843 24.89 9.3 48.8 56 1 33.8 0 0
02:59 1014 29.94 843 24.89 9.4 49 55 0.9 33.5 0 0
03:00 1014 29.94 844 24.92 9.5 49.1 54 0.7 33.3 0 0
03:01 1014 29.94 844 24.92 9.6 49.2 55 1 33.8 0 0
03:02 1014 29.94 844 24.92 9.6 49.4 56 1.2 34.2 0 0
03:03 1015 29.97 844 24.92 9.6 49.2 55 1.1 34.1 0 0
03:04 1015 29.97 844 24.92 9.6 49.3 55 1 33.9 0 0
03:05 1015 29.97 844 24.92 9.6 49.2 55 0.9 33.6 0 0
03:06 1015 29.97 844 24.92 9.6 49.4 55 1 33.8 0 0
03:07 1015 29.97 844 24.92 9.7 49.5 55 1 33.9 0 0
03:08 1015 29.97 844 24.92 9.7 49.4 54 1 33.8 0 0
03:09 1015 29.97 844 24.92 9.8 49.6 54 0.9 33.6 0 0
03:10 1015 29.97 844 24.92 9.8 49.6 53 0.8 33.4 0 0
03:11 1015 29.97 844 24.92 9.8 49.6 55 1.1 34.1 0 0
03:12 1015 29.97 844 24.92 9.8 49.6 56 1.6 34.8 0 0
03:13 1015 29.97 844 24.92 9.7 49.4 56 1.4 34.6 0 0
03:14 1015 29.97 844 24.92 9.6 49.3 57 1.5 34.7 0 0
03:15 1014 29.94 844 24.92 9.6 49.2 57 1.5 34.7 0 0
03:16 1014 29.94 844 24.92 9.5 49.1 58 1.6 34.9 0 0
03:17 1014 29.94 844 24.92 9.5 49 57 1.3 34.4 0 0
03:18 1014 29.94 843 24.89 9.4 49 59 1.8 35.2 0 0
03:19 1014 29.94 843 24.89 9.3 48.8 59 1.6 35 0 0
03:20 1014 29.94 843 24.89 9.3 48.7 59 1.7 35.1 0 0
03:21 1014 29.94 843 24.89 9.2 48.5 59 1.7 35.1 0 0
03:22 1014 29.94 843 24.89 9.1 48.3 59 1.5 34.8 0 0
03:23 1014 29.94 843 24.89 9 48.2 60 1.6 34.9 0 0
03:24 1014 29.94 843 24.89 8.9 48 60 1.5 34.8 0 0
03:25 1014 29.94 843 24.89 8.8 47.9 59 1.3 34.3 0 0
03:26 1014 29.94 843 24.89 8.8 47.8 60 1.5 34.7 0 0
03:27 1014 29.94 843 24.89 8.6 47.5 61 1.5 34.8 0 0
03:28 1014 29.94 843 24.89 8.5 47.3 62 1.6 34.8 0 0
03:29 1014 29.94 843 24.89 8.3 47 63 1.7 35 0 0
03:30 1014 29.94 843 24.89 8.1 46.6 64 1.8 35.2 0 0
03:31 1014 29.94 843 24.89 8 46.3 65 1.8 35.2 0 0
03:32 1014 29.94 843 24.89 7.7 45.9 65 1.7 35 0 0
03:33 1014 29.94 843 24.89 7.6 45.7 66 1.6 34.9 0 0
03:34 1014 29.94 843 24.89 7.6 45.6 66 1.6 34.9 0 0
03:35 1014 29.94 843 24.89 7.5 45.5 63 1 33.8 0 0
03:36 1014 29.94 843 24.89 7.6 45.7 64 1.3 34.4 0 0
03:37 1014 29.94 843 24.89 7.4 45.3 65 1.3 34.4 0 0
03:38 1014 29.94 843 24.89 7.2 45 67 1.5 34.6 0 0
03:39 1014 29.94 843 24.89 7 44.6 69 1.6 35 0 0
03:40 1014 29.94 843 24.89 6.8 44.3 70 1.8 35.2 0 0
03:41 1014 29.94 844 24.92 6.7 44 71 1.9 35.3 0 0
03:42 1014 29.94 844 24.92 6.6 43.9 72 1.8 35.3 0 0
03:43 1014 29.94 844 24.92 6.6 43.8 72 1.9 35.4 0 0
03:44 1015 29.97 844 24.92 6.6 43.8 71 1.7 35 0 0
03:45 1015 29.97 844 24.92 6.6 43.9 71 1.8 35.2 0 0
03:46 1015 29.97 844 24.92 6.7 44 71 1.9 35.3 0 0
03:47 1015 29.97 844 24.92 6.9 44.3 70 1.8 35.3 0 0
03:48 1015 29.97 844 24.92 7 44.7 70 1.9 35.4 0 0
03:49 1015 29.97 844 24.92 7.2 45 68 1.8 35.2 0 0
03:50 1015 29.97 844 24.92 7.5 45.4 66 1.6 34.9 0 0
03:51 1015 29.97 845 24.95 7.7 45.9 66 1.9 35.3 0 0
03:52 1015 29.97 845 24.95 7.9 46.2 65 1.8 35.3 0 0
03:53 1015 29.97 845 24.95 8 46.4 65 1.8 35.3 0 0
03:54 1015 29.97 844 24.92 8.1 46.6 64 1.7 35 0 0
03:55 1015 29.97 844 24.92 8.2 46.8 64 1.8 35.2 0 0
03:56 1015 29.97 844 24.92 8.3 46.9 63 1.8 35.2 0 0
03:57 1015 29.97 844 24.92 8.3 46.9 63 1.7 35 0 0
03:58 1015 29.97 844 24.92 8.4 47.1 63 1.9 35.4 0 0
03:59 1015 29.97 844 24.92 8.4 47.2 62 1.7 35 0 0
04:00 1015 29.97 844 24.92 8.5 47.2 63 1.8 35.3 0 0
04:01 1015 29.97 844 24.92 8.5 47.2 62 1.7 35 0 0
04:02 1015 29.97 844 24.92 8.5 47.3 63 1.8 35.2 0 0
04:03 1015 29.97 844 24.92 8.5 47.3 62 1.6 34.9 0 0
04:04 1015 29.97 844 24.92 8.5 47.2 63 1.8 35.3 0 0
04:05 1015 29.97 844 24.92 8.5 47.2 61 1.4 34.6 0 0
04:06 1015 29.97 844 24.92 8.5 47.3 63 1.8 35.2 0 0
04:07 1015 29.97 844 24.92 8.5 47.3 62 1.7 35.1 0 0
04:08 1015 29.97 844 24.92 8.5 47.3 61 1.5 34.7 0 0
04:09 1015 29.97 844 24.92 8.5 47.3 63 1.8 35.3 0 0
04:10 1015 29.97 844 24.92 8.5 47.2 63 1.8 35.2 0 0
04:11 1015 29.97 844 24.92 8.4 47.1 63 1.7 35.1 0 0
04:12 1015 29.97 844 24.92 8.4 47.1 63 1.7 35.1 0 0
04:13 1015 29.97 844 24.92 8.3 47 64 1.9 35.4 0 0
04:14 1015 29.97 844 24.92 8.2 46.8 64 1.9 35.4 0 0
04:15 1015 29.97 844 24.92 8.2 46.7 64 1.8 35.3 0 0
04:16 1015 29.97 844 24.92 8.1 46.5 64 1.8 35.2 0 0
04:17 1015 29.97 844 24.92 8 46.4 65 1.8 35.2 0 0
04:18 1015 29.97 844 24.92 7.9 46.2 66 1.9 35.5 0 0
04:19 1015 29.97 844 24.92 7.7 45.9 67 2 35.5 0 0
04:20 1015 29.97 844 24.92 7.5 45.6 68 2 35.6 0 0
04:21 1015 29.97 844 24.92 7.4 45.3 68 2 35.5 0 0
04:22 1015 29.97 844 24.92 7.2 45 69 1.8 35.3 0 0
04:23 1015 29.97 844 24.92 7.1 44.8 69 1.8 35.3 0 0
04:24 1015 29.97 844 24.92 7 44.7 69 1.7 35.1 0 0
04:25 1015 29.97 844 24.92 7 44.5 69 1.8 35.2 0 0
04:26 1015 29.97 844 24.92 7 44.6 69 1.8 35.2 0 0
04:27 1015 29.97 845 24.95 7 44.6 69 1.6 35 0 0
04:28 1015 29.97 845 24.95 7.1 44.7 69 1.8 35.2 0 0
04:29 1015 29.97 845 24.95 7.1 44.8 69 1.8 35.2 0 0
04:30 1015 29.97 845 24.95 7.1 44.9 68 1.7 35.1 0 0
04:31 1015 29.97 845 24.95 7.2 44.9 67 1.6 34.8 0 0
04:32 1015 29.97 845 24.95 7.3 45.1 67 1.6 35 0 0
04:33 1015 29.97 844 24.92 7.3 45.2 66 1.4 34.5 0 0
04:34 1015 29.97 844 24.92 7.4 45.3 66 1.5 34.7 0 0
04:35 1015 29.97 844 24.92 7.4 45.3 67 1.6 34.9 0 0
04:36 1015 29.97 844 24.92 7.4 45.3 67 1.6 34.9 0 0
04:37 1015 29.97 845 24.95 7.4 45.4 65 1.3 34.4 0 0
04:38 1015 29.97 845 24.95 7.5 45.5 66 1.7 35 0 0
04:39 1015 29.97 845 24.95 7.5 45.5 66 1.6 34.8 0 0
04:40 1015 29.97 845 24.95 7.5 45.5 65 1.4 34.5 0 0
04:41 1015 29.97 845 24.95 7.6 45.6 66 1.6 34.9 0 0
04:42 1015 29.97 845 24.95 7.6 45.6 64 1.3 34.3 0 0
04:43 1015 29.97 845 24.95 7.6 45.7 65 1.5 34.7 0 0
04:44 1015 29.97 845 24.95 7.7 45.9 66 1.7 35.1 0 0
04:45 1016 30 845 24.95 7.7 45.8 65 1.7 35 0 0
04:46 1016 30 845 24.95 7.7 45.8 65 1.6 34.8 0 0
04:47 1016 30 845 24.95 7.7 45.8 65 1.6 34.9 0 0
04:48 1016 30 845 24.95 7.7 45.8 65 1.6 34.9 0 0
04:49 1016 30 845 24.95 7.7 45.9 65 1.5 34.6 0 0
04:50 1016 30 845 24.95 7.7 45.9 65 1.5 34.7 0 0
04:51 1016 30 845 24.95 7.7 45.8 65 1.4 34.6 0 0
04:52 1016 30 845 24.95 7.7 45.8 65 1.4 34.6 0 0
04:53 1016 30 845 24.95 7.6 45.8 64 1.4 34.5 0 0
04:54 1016 30 845 24.95 7.6 45.8 63 1.1 34 0 0
04:55 1016 30 845 24.95 7.7 45.8 63 1.2 34.2 0 0
04:56 1016 30 845 24.95 7.7 45.9 63 1.2 34.1 0 0
04:57 1016 30 845 24.95 7.7 45.8 63 1.2 34.1 0 0
04:58 1016 30 845 24.95 7.7 45.8 62 0.9 33.6 0 0
04:59 1016 30 845 24.95 7.7 45.9 63 1.1 33.9 0 0
05:00 1016 30 845 24.95 7.7 45.9 63 1.1 34 0 0
05:01 1016 30 845 24.95 7.6 45.8 62 1 33.7 0 0
05:02 1016 30 845 24.95 7.7 45.8 63 1.1 34.1 0 0
05:03 1016 30 845 24.95 7.6 45.7 64 1.2 34.1 0 0
05:04 1016 30 845 24.95 7.6 45.7 65 1.4 34.5 0 0
05:05 1016 30 845 24.95 7.5 45.6 64 1.2 34.2 0 0
05:06 1016 30 845 24.95 7.5 45.5 65 1.4 34.6 0 0
05:07 1016 30 846 24.98 7.4 45.4 66 1.4 34.6 0 0
05:08 1016 30 846 24.98 7.4 45.3 66 1.6 34.9 0 0
05:09 1016 30 846 24.98 7.3 45.2 67 1.7 35 0 0
05:10 1016 30 846 24.98 7.3 45.1 69 1.9 35.5 0 0
05:11 1016 30 846 24.98 7.2 44.9 69 1.9 35.5 0 0
05:12 1016 30 846 24.98 7.1 44.7 70 2 35.6 0 0
05:13 1016 30 846 24.98 7 44.6 71 2.1 35.7 0 0
05:14 1016 30 846 24.98 7 44.5 71 2.1 35.7 0 0
05:15 1017 30.03 846 24.98 6.9 44.5 72 2.2 36 0 0
05:16 1017 30.03 846 24.98 6.9 44.4 71 2.1 35.7 0 0
05:17 1017 30.03 846 24.98 6.8 44.3 72 2.2 36 0 0
05:18 1016 30 846 24.98 6.8 44.2 72 2.1 35.8 0 0
05:19 1017 30.03 846 24.98 6.7 44.1 72 2.1 35.7 0 0
05:20 1016 30 846 24.98 6.7 44 72 1.9 35.5 0 0
05:21 1016 30 846 24.98 6.7 44 71 1.8 35.3 0 0
05:22 1016 30 846 24.98 6.6 44 71 1.8 35.2 0 0
05:23 1016 30 846 24.98 6.6 43.9 71 1.8 35.2 0 0
05:24 1016 30 846 24.98 6.6 43.9 72 1.9 35.4 0 0
05:25 1016 30 846 24.98 6.5 43.8 71 1.7 35.1 0 0
05:26 1016 30 846 24.98 6.5 43.8 72 1.8 35.2 0 0
05:27 1016 30 846 24.98 6.5 43.7 71 1.7 35.1 0 0
05:28 1016 30 845 24.95 6.4 43.6 72 1.8 35.2 0 0
05:29 1016 30 845 24.95 6.4 43.5 72 1.6 35 0 0
05:30 1016 30 845 24.95 6.4 43.5 72 1.7 35 0 0
05:31 1016 30 846 24.98 6.3 43.4 72 1.7 35 0 0
05:32 1016 30 846 24.98 6.3 43.3 71 1.5 34.7 0 0
05:33 1016 30 846 24.98 6.3 43.3 71 1.5 34.7 0 0
05:34 1016 30 846 24.98 6.3 43.3 72 1.7 35 0 0
05:35 1016 30 846 24.98 6.2 43.2 72 1.6 34.8 0 0
05:36 1016 30 846 24.98 6.2 43.2 72 1.6 35 0 0
05:37 1017 30.03 846 24.98 6.2 43.2 73 1.7 35 0 0
05:38 1017 30.03 846 24.98 6.2 43.1 72 1.6 34.9 0 0
05:39 1017 30.03 846 24.98 6.1 43 73 1.7 35.1 0 0
05:40 1017 30.03 846 24.98 6.1 43 73 1.7 35 0 0
05:41 1017 30.03 846 24.98 6.1 43 73 1.6 34.8 0 0
05:42 1017 30.03 846 24.98 6.1 42.9 74 1.8 35.3 0 0
05:43 1017 30.03 846 24.98 6.1 42.9 74 1.8 35.3 0 0
05:44 1017 30.03 846 24.98 6 42.9 74 1.7 35 0 0
05:45 1017 30.03 846 24.98 6 42.8 73 1.6 34.8 0 0
05:46 1017 30.03 846 24.98 6 42.8 74 1.7 35.1 0 0
05:47 1017 30.03 846 24.98 6 42.7 74 1.7 35 0 0
05:48 1017 30.03 846 24.98 5.9 42.7 74 1.7 35 0 0
05:49 1017 30.03 847 25.01 5.9 42.6 74 1.7 35.1 0 0
05:50 1017 30.03 847 25.01 5.9 42.6 75 1.7 35.1 0 0
05:51 1018 30.06 847 25.01 5.9 42.5 75 1.8 35.2 0 0
05:52 1018 30.06 847 25.01 5.8 42.5 76 1.9 35.5 0 0
05:53 1018 30.06 847 25.01 5.8 42.5 75 1.8 35.3 0 0
05:54 1018 30.06 847 25.01 5.8 42.4 76 1.9 35.3 0 0
05:55 1018 30.06 847 25.01 5.7 42.3 77 2 35.5 0 0
05:56 1018 30.06 847 25.01 5.7 42.2 77 2 35.6 0 0
05:57 1018 30.06 847 25.01 5.6 42.1 77 1.8 35.3 0 0
05:58 1018 30.06 847 25.01 5.5 41.9 76 1.7 35 0 0
05:59 1018 30.06 847 25.01 5.4 41.7 77 1.7 35.1 0 0
06:00 1018 30.06 847 25.01 5.4 41.7 77 1.7 35.1 0 0
06:01 1018 30.06 847 25.01 5.4 41.7 77 1.7 35 0 0
06:02 1018 30.06 847 25.01 5.3 41.5 78 1.8 35.2 0 0
06:03 1018 30.06 847 25.01 5.2 41.4 79 1.8 35.3 0 0
06:04 1018 30.06 847 25.01 5.1 41.2 79 1.8 35.3 0 0
06:05 1018 30.06 847 25.01 5 41 80 1.9 35.4 0 0
06:06 1018 30.06 847 25.01 4.9 40.8 82 2 35.7 0 0
06:07 1018 30.06 847 25.01 4.8 40.6 82 2 35.6 0 0
06:08 1017 30.03 847 25.01 4.7 40.4 84 2.2 35.9 0 0
06:09 1018 30.06 847 25.01 4.5 40.2 83 2 35.6 0 0
06:10 1018 30.06 847 25.01 4.5 40 84 2 35.6 0 0
06:11 1018 30.06 847 25.01 4.4 39.9 84 2 35.6 0 0
06:12 1018 30.06 847 25.01 4.3 39.8 85 2.1 35.8 0 0
06:13 1018 30.06 847 25.01 4.2 39.6 86 2.1 35.8 0 0
06:14 1018 30.06 847 25.01 4.2 39.5 86 2 35.6 0 0
06:15 1018 30.06 847 25.01 4.1 39.4 86 2 35.6 0 0
06:16 1018 30.06 847 25.01 4.1 39.3 86 2 35.5 0 0
06:17 1018 30.06 847 25.01 4.1 39.3 87 2.1 35.8 0 0
06:18 1018 30.06 847 25.01 4 39.2 87 2.1 35.8 0 0
06:19 1018 30.06 847 25.01 3.9 39 88 2.1 35.7 0 0
06:20 1018 30.06 847 25.01 3.9 39 88 2.1 35.9 0 0
06:21 1018 30.06 847 25.01 3.8 38.9 89 2.1 35.8 .2 0.008
06:22 1018 30.06 847 25.01 3.8 38.8 89 2.2 35.9 0 0
06:23 1018 30.06 847 25.01 3.7 38.7 90 2.2 36 0 0
06:24 1018 30.06 847 25.01 3.7 38.6 90 2.3 36.1 0 0
06:25 1018 30.06 847 25.01 3.6 38.6 91 2.2 36 0 0
06:26 1018 30.06 847 25.01 3.6 38.5 91 2.3 36.1 0 0
06:27 1018 30.06 847 25.01 3.6 38.4 91 2.3 36.1 0 0
06:28 1018 30.06 847 25.01 3.6 38.4 90 2.1 35.8 0 0
06:29 1018 30.06 847 25.01 3.5 38.3 89 1.9 35.4 0 0
06:30 1018 30.06 847 25.01 3.5 38.2 90 1.9 35.4 0 0
06:31 1018 30.06 847 25.01 3.4 38.2 90 1.9 35.4 0 0
06:32 1018 30.06 847 25.01 3.4 38.2 90 2 35.6 0 0
06:33 1018 30.06 847 25.01 3.4 38.1 90 1.9 35.4 .2 0.008
06:34 1018 30.06 847 25.01 3.3 37.9 90 1.8 35.2 0 0
06:35 1018 30.06 847 25.01 3.2 37.8 90 1.7 35.1 0 0
06:36 1018 30.06 847 25.01 3.2 37.7 90 1.7 35 0 0
06:37 1018 30.06 847 25.01 3.1 37.6 90 1.7 35.1 0 0
06:38 1018 30.06 847 25.01 3.1 37.6 91 1.8 35.2 0 0
06:39 1018 30.06 847 25.01 3.1 37.6 91 1.8 35.2 0 0
06:40 1018 30.06 847 25.01 3.1 37.5 91 1.8 35.3 0 0
06:41 1018 30.06 847 25.01 3 37.5 92 1.8 35.2 0 0
06:42 1018 30.06 847 25.01 3 37.4 91 1.7 35.1 0 0
06:43 1018 30.06 847 25.01 3 37.3 91 1.6 34.9 0 0
06:44 1018 30.06 847 25.01 2.9 37.2 92 1.8 35.2 0 0
06:45 1018 30.06 848 25.04 2.9 37.1 92 1.7 35 0 0
06:46 1018 30.06 848 25.04 2.8 37 92 1.6 34.8 0 0
06:47 1018 30.06 848 25.04 2.8 37 92 1.6 34.9 0 0
06:48 1018 30.06 848 25.04 2.7 36.8 92 1.6 34.8 0 0
06:49 1018 30.06 848 25.04 2.7 36.8 93 1.6 35 0 0
06:50 1019 30.09 848 25.04 2.6 36.7 93 1.5 34.8 0 0
06:51 1019 30.09 848 25.04 2.5 36.6 93 1.5 34.7 .2 0.008
06:52 1019 30.09 848 25.04 2.5 36.4 92 1.3 34.3 0 0
06:53 1019 30.09 848 25.04 2.4 36.3 92 1.2 34.2 0 0
06:54 1019 30.09 848 25.04 2.3 36.2 92 1.2 34.1 0 0
06:55 1019 30.09 848 25.04 2.3 36.1 92 1.2 34.1 0 0
06:56 1019 30.09 848 25.04 2.3 36.1 92 1.1 34 0 0
06:57 1019 30.09 848 25.04 2.2 36 92 1.1 33.9 0 0
06:58 1019 30.09 848 25.04 2.2 36 93 1.2 34.1 0 0
06:59 1019 30.09 848 25.04 2.2 36 93 1.2 34.2 0 0
07:00 1019 30.09 848 25.04 2.2 36 93 1.3 34.3 0 0
07:01 1019 30.09 848 25.04 2.2 36 93 1.3 34.3 0 0
07:02 1019 30.09 848 25.04 2.2 36 94 1.4 34.5 0 0
07:03 1019 30.09 848 25.04 2.3 36.1 93 1.2 34.2 0 0
07:04 1019 30.09 848 25.04 2.2 36 93 1.2 34.2 .4 0.016
07:05 1019 30.09 848 25.04 2.2 35.9 94 1.3 34.3 0 0
07:06 1019 30.09 848 25.04 2.2 35.9 93 1.2 34.2 0 0
07:07 1019 30.09 848 25.04 2.1 35.8 94 1.2 34.2 0 0
07:08 1019 30.09 848 25.04 2.1 35.8 93 1.1 34.1 0 0
07:09 1019 30.09 848 25.04 2.1 35.8 94 1.2 34.1 0 0
07:10 1019 30.09 848 25.04 2.1 35.7 94 1.2 34.2 0 0
07:11 1019 30.09 848 25.04 2.1 35.7 94 1.1 34 0 0
07:12 1019 30.09 848 25.04 2.1 35.7 93 1.1 34 0 0
07:13 1019 30.09 848 25.04 2.1 35.7 94 1.1 34 .2 0.008
07:14 1019 30.09 848 25.04 2 35.6 94 1.1 34 0 0
07:15 1019 30.09 849 25.07 2 35.6 93 1 33.8 0 0
07:16 1019 30.09 849 25.07 2 35.6 94 1.1 33.9 0 0
07:17 1019 30.09 849 25.07 2 35.5 94 1.1 34 0 0
07:18 1019 30.09 849 25.07 1.9 35.5 94 1.1 33.9 0 0
07:19 1020 30.12 849 25.07 1.9 35.4 93 1 33.7 .2 0.008
07:20 1020 30.12 849 25.07 1.9 35.4 93 0.9 33.6 0 0
07:21 1020 30.12 849 25.07 1.8 35.3 93 0.9 33.5 0 0
07:22 1020 30.12 849 25.07 1.7 35.1 94 0.8 33.5 0 0
07:23 1020 30.12 849 25.07 1.7 35.1 94 0.9 33.6 0 0
07:24 1020 30.12 849 25.07 1.7 35.1 94 0.8 33.5 0 0
07:25 1020 30.12 849 25.07 1.7 35 94 0.8 33.5 .2 0.008
07:26 1019 30.09 849 25.07 1.6 34.9 94 0.8 33.5 0 0
07:27 1019 30.09 849 25.07 1.6 34.8 94 0.8 33.4 0 0
07:28 1019 30.09 849 25.07 1.5 34.7 94 0.7 33.2 0 0
07:29 1019 30.09 848 25.04 1.4 34.6 94 0.6 33.1 .2 0.008
07:30 1019 30.09 849 25.07 1.4 34.5 94 0.6 33.1 0 0
07:31 1019 30.09 848 25.04 1.3 34.4 95 0.6 33 .2 0.008
07:32 1019 30.09 849 25.07 1.3 34.3 95 0.5 32.9 0 0
07:33 1019 30.09 849 25.07 1.2 34.1 95 0.4 32.8 0 0
07:34 1019 30.09 849 25.07 1.1 34 95 0.5 32.9 .2 0.008
07:35 1019 30.09 849 25.07 1.1 33.9 95 0.4 32.8 0 0
07:36 1019 30.09 849 25.07 1 33.9 96 0.4 32.8 0 0
07:37 1019 30.09 849 25.07 1 33.8 95 0.3 32.6 0 0
07:38 1019 30.09 849 25.07 0.9 33.6 96 0.3 32.5 .2 0.008
07:39 1019 30.09 849 25.07 0.9 33.6 96 0.3 32.5 0 0
07:40 1020 30.12 849 25.07 0.8 33.4 96 0.2 32.4 0 0
07:41 1020 30.12 849 25.07 0.7 33.3 96 0.2 32.3 0 0
07:42 1020 30.12 849 25.07 0.7 33.2 96 0.2 32.3 0 0
07:43 1020 30.12 849 25.07 0.6 33.1 96 0.1 32.2 .2 0.008
07:44 1020 30.12 849 25.07 0.6 33 97 0.1 32.2 0 0
07:45 1020 30.12 849 25.07 0.5 32.9 97 0 32 0 0
07:46 1020 30.12 849 25.07 0.5 32.9 97 0.1 32.1 0 0
07:47 1020 30.12 849 25.07 0.4 32.8 97 0 32.1 0 0
07:48 1020 30.12 849 25.07 0.4 32.8 97 0.1 32.1 0 0
07:49 1020 30.12 849 25.07 0.3 32.6 97 -0 31.9 .2 0.008
07:50 1020 30.12 849 25.07 0.3 32.5 98 -0.1 31.9 0 0
07:51 1020 30.12 849 25.07 0.3 32.5 98 -0 32 0 0
07:52 1020 30.12 849 25.07 0.2 32.4 98 -0.1 31.9 0 0
07:53 1020 30.12 849 25.07 0.2 32.4 98 -0.1 31.8 0 0
07:54 1020 30.12 849 25.07 0.2 32.3 98 -0.1 31.8 0 0
07:55 1020 30.12 849 25.07 0.1 32.2 98 -0.2 31.6 0 0
07:56 1020 30.12 849 25.07 0 32.1 98 -0.2 31.6 0 0
07:57 1020 30.12 849 25.07 -0 31.9 98 -0.3 31.5 0 0
07:58 1020 30.12 849 25.07 -0.1 31.9 98 -0.3 31.4 0 0
07:59 1020 30.12 849 25.07 -0.1 31.8 98 -0.4 31.3 0 0
08:00 1020 30.12 849 25.07 -0.1 31.7 98 -0.4 31.3 0 0
08:01 1020 30.12 849 25.07 -0.2 31.7 98 -0.4 31.3 0 0
08:02 1020 30.12 849 25.07 -0.2 31.7 99 -0.4 31.3 0 0
08:03 1020 30.12 849 25.07 -0.2 31.7 99 -0.4 31.3 0 0
08:04 1020 30.12 849 25.07 -0.2 31.6 99 -0.4 31.2 0 0
08:05 1020 30.12 849 25.07 -0.2 31.6 99 -0.4 31.2 0 0
08:06 1020 30.12 849 25.07 -0.3 31.5 99 -0.5 31.2 0 0
08:07 1020 30.12 849 25.07 -0.3 31.5 99 -0.5 31.2 0 0
08:08 1020 30.12 849 25.07 -0.3 31.4 99 -0.5 31.1 0 0
08:09 1020 30.12 849 25.07 -0.3 31.4 99 -0.5 31.1 0 0
08:10 1020 30.12 849 25.07 -0.4 31.4 99 -0.5 31.1 0 0
08:11 1020 30.12 849 25.07 -0.4 31.3 99 -0.5 31 0 0
08:12 1020 30.12 849 25.07 -0.4 31.3 99 -0.6 31 0 0
08:13 1020 30.12 850 25.1 -0.4 31.3 99 -0.5 31 0 0
08:14 1020 30.12 850 25.1 -0.4 31.3 99 -0.5 31 0 0
08:15 1020 30.12 850 25.1 -0.4 31.3 99 -0.5 31.1 0 0
08:16 1020 30.12 850 25.1 -0.4 31.2 99 -0.5 31.1 0 0
08:17 1020 30.12 850 25.1 -0.4 31.3 99 -0.5 31.1 0 0
08:18 1020 30.12 850 25.1 -0.4 31.3 99 -0.5 31.1 0 0
08:19 1020 30.12 849 25.07 -0.4 31.2 99 -0.5 31.1 0 0
08:20 1020 30.12 849 25.07 -0.4 31.2 99 -0.5 31.1 0 0
08:21 1020 30.12 849 25.07 -0.4 31.3 99 -0.5 31.1 0 0
08:22 1020 30.12 849 25.07 -0.4 31.2 99 -0.5 31.1 0 0
08:23 1020 30.12 849 25.07 -0.4 31.2 100 -0.5 31.1 0 0
08:24 1020 30.12 849 25.07 -0.4 31.2 100 -0.5 31.1 0 0
08:25 1020 30.12 849 25.07 -0.4 31.3 100 -0.5 31.2 0 0
08:26 1020 30.12 849 25.07 -0.4 31.3 100 -0.4 31.2 0 0
08:27 1020 30.12 849 25.07 -0.4 31.3 100 -0.4 31.2 0 0
08:28 1020 30.12 849 25.07 -0.3 31.4 100 -0.4 31.3 0 0
08:29 1020 30.12 849 25.07 -0.3 31.5 100 -0.4 31.4 0 0
08:30 1020 30.12 849 25.07 -0.3 31.5 100 -0.3 31.4 0 0
08:31 1020 30.12 849 25.07 -0.3 31.5 100 -0.3 31.4 0 0
08:32 1020 30.12 849 25.07 -0.2 31.6 100 -0.3 31.5 0 0
08:33 1020 30.12 849 25.07 -0.2 31.6 100 -0.3 31.5 0 0
08:34 1020 30.12 849 25.07 -0.2 31.6 100 -0.2 31.6 0 0
08:35 1020 30.12 849 25.07 -0.2 31.7 100 -0.2 31.6 0 0
08:36 1020 30.12 849 25.07 -0.2 31.7 100 -0.2 31.7 0 0
08:37 1020 30.12 849 25.07 -0.2 31.7 100 -0.2 31.7 0 0
08:38 1020 30.12 849 25.07 -0.1 31.8 100 -0.1 31.8 0 0
08:39 1020 30.12 849 25.07 -0.1 31.7 100 -0.1 31.7 0 0
08:40 1020 30.12 849 25.07 -0.2 31.7 100 -0.2 31.7 0 0
08:41 1020 30.12 849 25.07 -0.2 31.7 100 -0.2 31.7 0 0
08:42 1020 30.12 849 25.07 -0.2 31.6 100 -0.2 31.6 0 0
08:43 1020 30.12 849 25.07 -0.2 31.6 100 -0.2 31.6 0 0
08:44 1020 30.12 850 25.1 -0.3 31.5 100 -0.3 31.5 0 0
08:45 1020 30.12 849 25.07 -0.3 31.5 100 -0.3 31.5 0 0
08:46 1020 30.12 850 25.1 -0.3 31.5 100 -0.3 31.5 0 0
08:47 1020 30.12 850 25.1 -0.3 31.4 100 -0.3 31.4 0 0
08:48 1020 30.12 850 25.1 -0.3 31.4 100 -0.3 31.4 0 0
08:49 1020 30.12 850 25.1 -0.4 31.4 100 -0.4 31.3 0 0
08:50 1020 30.12 850 25.1 -0.3 31.4 100 -0.3 31.4 0 0
08:51 1020 30.12 850 25.1 -0.3 31.4 100 -0.3 31.4 0 0
08:52 1020 30.12 850 25.1 -0.4 31.4 100 -0.4 31.3 0 0
08:53 1020 30.12 850 25.1 -0.4 31.3 100 -0.4 31.3 0 0
08:54 1020 30.12 850 25.1 -0.4 31.3 100 -0.4 31.3 0 0
08:55 1020 30.12 850 25.1 -0.3 31.4 100 -0.4 31.4 0 0
08:56 1020 30.12 850 25.1 -0.4 31.3 100 -0.4 31.3 0 0
08:57 1020 30.12 849 25.07 -0.4 31.3 100 -0.4 31.3 0 0
08:58 1020 30.12 849 25.07 -0.4 31.4 100 -0.4 31.4 0 0
08:59 1020 30.12 849 25.07 -0.4 31.4 100 -0.4 31.4 0 0
09:00 1020 30.12 849 25.07 -0.3 31.4 100 -0.3 31.4 0 0
09:01 1020 30.12 849 25.07 -0.3 31.4 100 -0.3 31.4 0 0
09:02 1020 30.12 849 25.07 -0.3 31.4 100 -0.3 31.4 0 0
09:03 1020 30.12 849 25.07 -0.3 31.5 100 -0.3 31.5 0 0
09:04 1020 30.12 849 25.07 -0.3 31.4 100 -0.3 31.4 0 0
09:05 1020 30.12 849 25.07 -0.3 31.5 100 -0.3 31.5 0 0
09:06 1020 30.12 849 25.07 -0.3 31.5 100 -0.3 31.5 0 0
09:07 1020 30.12 849 25.07 -0.3 31.5 100 -0.3 31.5 0 0
09:08 1020 30.12 849 25.07 -0.3 31.5 100 -0.3 31.5 0 0
09:09 1020 30.12 849 25.07 -0.3 31.5 100 -0.3 31.5 0 0
09:10 1020 30.12 849 25.07 -0.3 31.5 100 -0.3 31.5 0 0
09:11 1020 30.12 850 25.1 -0.3 31.5 100 -0.3 31.5 0 0
09:12 1020 30.12 850 25.1 -0.3 31.5 100 -0.3 31.5 0 0
09:13 1020 30.12 850 25.1 -0.3 31.5 100 -0.3 31.5 0 0
09:14 1020 30.12 850 25.1 -0.3 31.4 100 -0.3 31.4 0 0
09:15 1020 30.12 850 25.1 -0.3 31.5 100 -0.3 31.5 0 0
09:16 1020 30.12 849 25.07 -0.3 31.5 100 -0.3 31.5 0 0
09:17 1020 30.12 849 25.07 -0.3 31.5 100 -0.3 31.5 0 0
09:18 1020 30.12 849 25.07 -0.2 31.6 100 -0.2 31.6 0 0
09:19 1020 30.12 849 25.07 -0.2 31.6 100 -0.2 31.6 0 0
09:20 1020 30.12 849 25.07 -0.2 31.7 100 -0.2 31.7 0 0
09:21 1020 30.12 849 25.07 -0.1 31.8 100 -0.1 31.8 0 0
09:22 1020 30.12 849 25.07 -0 32 100 -0 32 0 0
09:23 1020 30.12 849 25.07 0.1 32.1 100 0.1 32.1 0 0
09:24 1020 30.12 849 25.07 0.1 32.3 100 0.1 32.3 0 0
09:25 1020 30.12 849 25.07 0.2 32.4 100 0.2 32.4 0 0
09:26 1020 30.12 849 25.07 0.2 32.3 100 0.2 32.3 0 0
09:27 1020 30.12 849 25.07 0.3 32.5 100 0.3 32.5 0 0
09:28 1020 30.12 849 25.07 0.3 32.6 100 0.3 32.6 0 0
09:29 1020 30.12 849 25.07 0.4 32.7 100 0.4 32.7 0 0
09:30 1020 30.12 849 25.07 0.4 32.8 100 0.4 32.8 0 0
09:31 1020 30.12 849 25.07 0.5 32.8 100 0.5 32.8 0 0
09:32 1020 30.12 849 25.07 0.5 32.8 100 0.5 32.8 0 0
09:33 1020 30.12 849 25.07 0.4 32.8 100 0.4 32.8 0 0
09:34 1020 30.12 849 25.07 0.4 32.7 100 0.4 32.7 0 0
09:35 1020 30.12 849 25.07 0.4 32.7 100 0.4 32.7 0 0
09:36 1020 30.12 849 25.07 0.4 32.7 100 0.4 32.7 0 0
09:37 1020 30.12 849 25.07 0.3 32.6 100 0.3 32.6 0 0
09:38 1020 30.12 849 25.07 0.3 32.6 100 0.3 32.6 0 0
09:39 1020 30.12 849 25.07 0.3 32.6 100 0.3 32.6 0 0
09:40 1020 30.12 849 25.07 0.4 32.7 100 0.4 32.7 0 0
09:41 1020 30.12 849 25.07 0.4 32.8 100 0.4 32.8 0 0
09:42 1020 30.12 849 25.07 0.4 32.8 100 0.4 32.8 0 0
09:43 1020 30.12 849 25.07 0.4 32.8 100 0.4 32.8 0 0
09:44 1020 30.12 849 25.07 0.5 32.9 100 0.5 32.9 0 0
09:45 1020 30.12 849 25.07 0.5 32.9 100 0.5 32.9 0 0
09:46 1020 30.12 849 25.07 0.5 32.9 100 0.5 32.9 0 0
09:47 1020 30.12 849 25.07 0.5 33 100 0.5 33 0 0
09:48 1020 30.12 849 25.07 0.5 33 100 0.5 32.9 0 0
09:49 1020 30.12 849 25.07 0.5 33 100 0.5 32.9 0 0
09:50 1020 30.12 849 25.07 0.5 32.9 100 0.5 32.8 0 0
09:51 1020 30.12 849 25.07 0.5 32.9 100 0.4 32.8 0 0
09:52 1020 30.12 849 25.07 0.5 32.9 99 0.4 32.8 0 0
09:53 1020 30.12 849 25.07 0.5 33 99 0.4 32.8 0 0
09:54 1020 30.12 849 25.07 0.6 33 99 0.5 32.8 0 0
09:55 1020 30.12 849 25.07 0.6 33.1 99 0.5 32.8 .2 0.008
09:56 1020 30.12 849 25.07 0.6 33 99 0.4 32.8 0 0
09:57 1020 30.12 849 25.07 0.6 33.1 99 0.4 32.8 0 0
09:58 1020 30.12 849 25.07 0.6 33.1 99 0.5 32.8 0 0
09:59 1020 30.12 849 25.07 0.6 33.1 99 0.5 32.8 0 0
10:00 1020 30.12 849 25.07 0.6 33.1 99 0.4 32.8 0 0
10:01 1020 30.12 849 25.07 0.5 33 99 0.3 32.6 0 0
10:02 1020 30.12 849 25.07 0.5 33 99 0.3 32.6 0 0
10:03 1020 30.12 849 25.07 0.5 32.9 99 0.3 32.5 0 0
10:04 1020 30.12 849 25.07 0.5 32.8 99 0.2 32.4 .4 0.016
10:05 1020 30.12 849 25.07 0.4 32.8 99 0.2 32.4 0 0
10:06 1020 30.12 849 25.07 0.4 32.7 98 0.2 32.3 0 0
10:07 1020 30.12 849 25.07 0.3 32.6 99 0.1 32.2 0 0
10:08 1020 30.12 849 25.07 0.3 32.5 98 0.1 32.1 .2 0.008
10:09 1020 30.12 849 25.07 0.2 32.4 99 0 32 0 0
10:10 1020 30.12 849 25.07 0.2 32.4 99 0 32 0 0
10:11 1020 30.12 849 25.07 0.1 32.2 99 -0 31.9 0 0
10:12 1020 30.12 849 25.07 0.2 32.3 99 -0 32 0 0
10:13 1020 30.12 849 25.07 0.2 32.3 99 0 32 .2 0.008
10:14 1020 30.12 849 25.07 0.1 32.3 99 0 32 0 0
10:15 1020 30.12 849 25.07 0.2 32.3 99 0 32.1 0 0
10:16 1020 30.12 849 25.07 0.2 32.3 99 0.1 32.1 0 0
10:17 1020 30.12 849 25.07 0.2 32.4 99 0.1 32.2 .2 0.008
10:18 1020 30.12 850 25.1 0.2 32.4 99 0.1 32.1 0 0
10:19 1020 30.12 850 25.1 0.2 32.4 99 0.1 32.2 0 0
10:20 1020 30.12 850 25.1 0.3 32.5 99 0.1 32.3 0 0
10:21 1020 30.12 850 25.1 0.3 32.5 99 0.1 32.2 .2 0.008
10:22 1020 30.12 850 25.1 0.3 32.5 99 0.1 32.2 0 0
10:23 1020 30.12 850 25.1 0.3 32.5 99 0.1 32.2 0 0
10:24 1020 30.12 850 25.1 0.3 32.5 99 0.1 32.2 0 0
10:25 1020 30.12 850 25.1 0.3 32.5 99 0.1 32.2 .2 0.008
10:26 1021 30.15 850 25.1 0.3 32.6 99 0.1 32.3 0 0
10:27 1021 30.15 850 25.1 0.3 32.6 99 0.1 32.2 0 0
10:28 1021 30.15 850 25.1 0.3 32.5 99 0.1 32.2 .2 0.008
10:29 1021 30.15 850 25.1 0.3 32.6 99 0.1 32.2 0 0
10:30 1021 30.15 850 25.1 0.3 32.6 99 0.1 32.2 0 0
10:31 1021 30.15 850 25.1 0.3 32.6 99 0.1 32.2 0 0
10:32 1021 30.15 850 25.1 0.3 32.5 99 0.1 32.2 .4 0.016
10:33 1021 30.15 850 25.1 0.3 32.5 99 0.1 32.2 0 0
10:34 1021 30.15 850 25.1 0.3 32.6 99 0.1 32.2 0 0
10:35 1021 30.15 850 25.1 0.3 32.6 99 0.1 32.2 .2 0.008
10:36 1021 30.15 850 25.1 0.3 32.5 99 0.1 32.2 0 0
10:37 1021 30.15 850 25.1 0.3 32.6 99 0.1 32.2 0 0
10:38 1021 30.15 850 25.1 0.3 32.6 99 0.1 32.2 0 0
10:39 1021 30.15 850 25.1 0.3 32.5 98 0.1 32.1 .2 0.008
10:40 1021 30.15 850 25.1 0.3 32.5 98 0 32.1 0 0
10:41 1021 30.15 850 25.1 0.3 32.5 99 0.1 32.1 0 0
10:42 1021 30.15 850 25.1 0.2 32.4 99 0 32 0 0
10:43 1021 30.15 850 25.1 0.2 32.4 99 0 32 0 0
10:44 1021 30.15 850 25.1 0.1 32.2 99 -0 31.9 .2 0.008
10:45 1021 30.15 850 25.1 0.2 32.3 99 -0 32 0 0
10:46 1021 30.15 850 25.1 0.2 32.3 99 0 32 0 0
10:47 1021 30.15 850 25.1 0.1 32.3 99 -0 32 0 0
10:48 1021 30.15 850 25.1 0.2 32.3 99 0 32.1 0 0
10:49 1021 30.15 850 25.1 0.2 32.4 99 0.1 32.1 .2 0.008
10:50 1021 30.15 850 25.1 0.2 32.3 99 0 32 0 0
10:51 1021 30.15 850 25.1 0.2 32.4 99 0.1 32.1 0 0
10:52 1021 30.15 850 25.1 0.2 32.4 99 0 32.1 0 0
10:53 1021 30.15 850 25.1 0.2 32.4 99 0.1 32.2 .2 0.008
10:54 1021 30.15 850 25.1 0.3 32.5 99 0.1 32.2 0 0
10:55 1021 30.15 850 25.1 0.3 32.5 99 0.1 32.2 0 0
10:56 1021 30.15 850 25.1 0.3 32.5 99 0.1 32.2 0 0
10:57 1021 30.15 850 25.1 0.3 32.5 99 0.1 32.2 .2 0.008
10:58 1021 30.15 850 25.1 0.3 32.5 99 0.1 32.1 0 0
10:59 1021 30.15 850 25.1 0.3 32.5 99 0.1 32.1 0 0
11:00 1021 30.15 850 25.1 0.3 32.5 99 0.1 32.2 0 0
11:01 1021 30.15 850 25.1 0.3 32.5 99 0.1 32.2 .2 0.008
11:02 1021 30.15 850 25.1 0.3 32.5 99 0.1 32.2 0 0
11:03 1021 30.15 850 25.1 0.3 32.6 99 0.1 32.2 0 0
11:04 1021 30.15 850 25.1 0.3 32.6 99 0.2 32.3 0 0
11:05 1021 30.15 850 25.1 0.4 32.7 99 0.2 32.4 .2 0.008
11:06 1021 30.15 850 25.1 0.4 32.8 99 0.2 32.4 0 0
11:07 1021 30.15 850 25.1 0.5 32.8 98 0.2 32.4 0 0
11:08 1021 30.15 850 25.1 0.5 32.9 98 0.2 32.4 .4 0.016
11:09 1021 30.15 850 25.1 0.5 32.9 98 0.2 32.4 0 0
11:10 1021 30.15 850 25.1 0.6 33 98 0.3 32.5 0 0
11:11 1021 30.15 850 25.1 0.6 33.1 98 0.3 32.5 .2 0.008
11:12 1021 30.15 850 25.1 0.6 33.1 98 0.3 32.6 0 0
11:13 1021 30.15 850 25.1 0.6 33.1 97 0.3 32.5 0 0
11:14 1021 30.15 850 25.1 0.7 33.2 97 0.3 32.5 .2 0.008
11:15 1021 30.15 850 25.1 0.6 33.1 97 0.3 32.5 0 0
11:16 1021 30.15 850 25.1 0.6 33.1 97 0.2 32.4 0 0
11:17 1021 30.15 851 25.13 0.6 33 97 0.1 32.3 0 0
11:18 1021 30.15 851 25.13 0.5 33 97 0.2 32.3 .2 0.008
11:19 1021 30.15 851 25.13 0.5 33 98 0.2 32.3 0 0
11:20 1021 30.15 851 25.13 0.6 33.1 98 0.3 32.5 0 0
11:21 1021 30.15 850 25.1 0.7 33.2 98 0.3 32.6 .2 0.008
11:22 1021 30.15 850 25.1 0.7 33.3 98 0.4 32.7 0 0
11:23 1021 30.15 850 25.1 0.8 33.4 97 0.4 32.7 0 0
11:24 1021 30.15 850 25.1 0.9 33.6 97 0.4 32.8 .2 0.008
11:25 1021 30.15 850 25.1 0.9 33.6 97 0.4 32.7 0 0
11:26 1021 30.15 850 25.1 0.9 33.7 96 0.4 32.8 .2 0.008
11:27 1021 30.15 850 25.1 0.9 33.7 95 0.3 32.5 0 0
11:28 1021 30.15 850 25.1 0.9 33.7 95 0.2 32.3 0 0
11:29 1021 30.15 850 25.1 1 33.7 94 0.1 32.2 .4 0.016
11:30 1021 30.15 850 25.1 1 33.8 94 0.1 32.2 0 0
11:31 1021 30.15 850 25.1 1.1 33.9 93 0.1 32.2 0 0
11:32 1021 30.15 850 25.1 1.2 34.1 93 0.1 32.2 .2 0.008
11:33 1021 30.15 850 25.1 1.2 34.2 93 0.2 32.3 0 0
11:34 1021 30.15 850 25.1 1.2 34.2 92 0 32 .2 0.008
11:35 1021 30.15 850 25.1 1.3 34.3 91 0 32 0 0
11:36 1021 30.15 851 25.13 1.3 34.3 91 0.1 32.1 0 0
11:37 1021 30.15 851 25.13 1.3 34.4 91 0 32 .2 0.008
11:38 1021 30.15 851 25.13 1.3 34.4 91 0.1 32.1 0 0
11:39 1021 30.15 851 25.13 1.4 34.5 91 0.1 32.2 .2 0.008
11:40 1021 30.15 851 25.13 1.4 34.5 90 -0.1 31.7 0 0
11:41 1021 30.15 851 25.13 1.3 34.4 89 -0.3 31.5 .2 0.008
11:42 1021 30.15 851 25.13 1.3 34.4 89 -0.3 31.5 0 0
11:43 1021 30.15 851 25.13 1.4 34.5 89 -0.2 31.6 .2 0.008
11:44 1021 30.15 851 25.13 1.5 34.7 89 -0.1 31.9 0 0
11:45 1021 30.15 851 25.13 1.7 35 88 -0.2 31.7 .4 0.016
11:46 1021 30.15 851 25.13 1.8 35.2 86 -0.3 31.5 0 0
11:47 1021 30.15 851 25.13 1.8 35.3 86 -0.2 31.6 .2 0.008
11:48 1021 30.15 851 25.13 1.9 35.3 88 0.1 32.1 0 0
11:49 1021 30.15 851 25.13 2 35.6 86 -0 32 .2 0.008
11:50 1021 30.15 851 25.13 2.1 35.8 85 -0.2 31.7 0 0
11:51 1021 30.15 851 25.13 2.1 35.8 84 -0.3 31.4 0 0
11:52 1021 30.15 851 25.13 2.1 35.7 84 -0.3 31.4 0 0
11:53 1021 30.15 851 25.13 2.1 35.8 84 -0.3 31.5 0 0
11:54 1021 30.15 851 25.13 2.1 35.8 84 -0.2 31.6 0 0
11:55 1021 30.15 851 25.13 2.2 35.9 85 -0 32 0 0
11:56 1021 30.15 851 25.13 2.2 36 83 -0.4 31.2 0 0
11:57 1021 30.15 851 25.13 2.2 36 83 -0.4 31.2 0 0
11:58 1021 30.15 851 25.13 2.2 36 84 -0.1 31.8 0 0
11:59 1021 30.15 851 25.13 2.2 36 84 -0.2 31.6 0 0
12:00 1021 30.15 851 25.13 2.2 35.9 85 -0.1 31.9 0 0
12:01 1021 30.15 851 25.13 2.1 35.8 86 -0 31.9 0 0
12:02 1021 30.15 851 25.13 2.1 35.8 85 -0.2 31.6 0 0
12:03 1021 30.15 851 25.13 2.1 35.7 85 -0.2 31.7 0 0
12:04 1021 30.15 851 25.13 2.1 35.7 85 -0.1 31.7 0 0
12:05 1022 30.18 851 25.13 2.2 35.9 85 -0.2 31.7 0 0
12:06 1021 30.15 851 25.13 2.2 36 84 -0.2 31.7 0 0
12:07 1022 30.18 851 25.13 2.2 36 84 -0.2 31.7 0 0
12:08 1022 30.18 851 25.13 2.2 36 85 -0 31.9 0 0
12:09 1022 30.18 851 25.13 2.3 36.2 85 0.1 32.1 0 0
12:10 1022 30.18 851 25.13 2.4 36.3 87 0.4 32.8 0 0
12:11 1022 30.18 851 25.13 2.5 36.5 84 0.1 32.1 0 0
12:12 1022 30.18 851 25.13 2.7 36.8 83 0.1 32.2 0 0
12:13 1022 30.18 851 25.13 2.8 37.1 81 -0.1 31.8 0 0
12:14 1022 30.18 851 25.13 2.8 37.1 83 0.2 32.3 0 0
12:15 1022 30.18 851 25.13 2.7 36.9 83 0.2 32.3 0 0
12:16 1022 30.18 851 25.13 2.6 36.7 84 0.2 32.4 0 0
12:17 1022 30.18 851 25.13 2.5 36.4 85 0.2 32.4 0 0
12:18 1022 30.18 851 25.13 2.4 36.2 84 -0.1 31.8 0 0
12:19 1022 30.18 851 25.13 2.2 36 86 0.1 32.1 0 0
12:20 1022 30.18 851 25.13 2.1 35.8 85 -0.1 31.7 0 0
12:21 1022 30.18 851 25.13 2 35.6 86 -0.2 31.7 0 0
12:22 1022 30.18 851 25.13 2 35.6 86 -0 31.9 0 0
12:23 1022 30.18 851 25.13 2.1 35.8 85 -0.1 31.9 0 0
12:24 1022 30.18 851 25.13 2.2 36 85 0 32 0 0
12:25 1022 30.18 851 25.13 2.3 36.1 84 -0.1 31.9 0 0
12:26 1022 30.18 851 25.13 2.4 36.3 85 0.2 32.3 0 0
12:27 1022 30.18 851 25.13 2.6 36.6 85 0.3 32.5 0 0
12:28 1022 30.18 851 25.13 2.6 36.7 84 0.1 32.2 0 0
12:29 1022 30.18 851 25.13 2.8 37 84 0.4 32.8 0 0
12:30 1022 30.18 851 25.13 2.9 37.2 83 0.2 32.4 0 0
12:31 1022 30.18 851 25.13 2.8 37 83 0.3 32.5 0 0
12:32 1022 30.18 851 25.13 2.7 36.9 85 0.4 32.8 0 0
12:33 1022 30.18 851 25.13 2.7 36.8 84 0.2 32.4 0 0
12:34 1022 30.18 851 25.13 2.7 36.8 85 0.5 32.9 0 0
12:35 1022 30.18 851 25.13 2.7 36.9 84 0.2 32.4 0 0
12:36 1022 30.18 851 25.13 2.6 36.7 83 0.1 32.1 0 0
12:37 1022 30.18 851 25.13 2.6 36.6 85 0.3 32.5 0 0
12:38 1022 30.18 851 25.13 2.6 36.7 85 0.4 32.7 0 0
12:39 1022 30.18 851 25.13 2.8 37 85 0.5 32.9 0 0
12:40 1022 30.18 851 25.13 2.9 37.3 83 0.4 32.6 0 0
12:41 1022 30.18 851 25.13 3 37.4 82 0.2 32.3 0 0
12:42 1022 30.18 851 25.13 2.9 37.2 83 0.2 32.4 0 0
12:43 1022 30.18 851 25.13 2.8 37 82 0 32.1 0 0
12:44 1022 30.18 851 25.13 2.8 37.1 85 0.5 32.9 0 0
12:45 1022 30.18 851 25.13 2.9 37.2 83 0.3 32.5 0 0
12:46 1022 30.18 851 25.13 2.8 37 83 0.2 32.4 0 0
12:47 1022 30.18 851 25.13 2.9 37.1 83 0.3 32.5 0 0
12:48 1022 30.18 851 25.13 2.9 37.3 84 0.5 32.9 0 0
12:49 1022 30.18 851 25.13 3.1 37.5 83 0.5 32.9 0 0
12:50 1022 30.18 851 25.13 3.1 37.6 82 0.3 32.6 0 0
12:51 1022 30.18 851 25.13 3 37.4 82 0.2 32.4 0 0
12:52 1022 30.18 851 25.13 3 37.3 82 0.2 32.4 0 0
12:53 1022 30.18 851 25.13 3 37.5 82 0.3 32.5 0 0
12:54 1022 30.18 851 25.13 3.1 37.6 82 0.4 32.7 0 0
12:55 1022 30.18 851 25.13 3.3 37.9 81 0.3 32.6 0 0
12:56 1022 30.18 851 25.13 3.2 37.8 81 0.4 32.7 0 0
12:57 1021 30.15 851 25.13 3.2 37.8 82 0.5 32.8 0 0
12:58 1021 30.15 851 25.13 3.2 37.8 84 0.8 33.4 0 0
12:59 1021 30.15 851 25.13 3.4 38.1 81 0.4 32.7 0 0
13:00 1021 30.15 851 25.13 3.5 38.3 82 0.8 33.5 0 0
13:01 1021 30.15 851 25.13 3.6 38.5 83 1 33.8 0 0
13:02 1021 30.15 851 25.13 3.7 38.6 82 0.9 33.6 0 0
13:03 1021 30.15 851 25.13 3.6 38.5 82 0.8 33.5 0 0
13:04 1021 30.15 851 25.13 3.6 38.5 82 0.8 33.4 0 0
13:05 1021 30.15 851 25.13 3.6 38.5 80 0.5 33 0 0
13:06 1021 30.15 851 25.13 3.5 38.3 82 0.8 33.4 0 0
13:07 1021 30.15 851 25.13 3.6 38.5 83 1 33.7 0 0
13:08 1021 30.15 851 25.13 3.7 38.7 79 0.3 32.6 0 0
13:09 1021 30.15 851 25.13 3.6 38.5 81 0.6 33.1 0 0
13:10 1021 30.15 851 25.13 3.6 38.5 82 0.9 33.6 0 0
13:11 1021 30.15 851 25.13 3.8 38.8 85 1.5 34.6 0 0
13:12 1021 30.15 851 25.13 4 39.2 84 1.5 34.8 0 0
13:13 1021 30.15 851 25.13 4.1 39.4 82 1.2 34.2 0 0
13:14 1021 30.15 851 25.13 4.2 39.5 81 1.1 34.1 0 0
13:15 1021 30.15 851 25.13 4.2 39.5 78 0.7 33.2 0 0
13:16 1021 30.15 851 25.13 4.2 39.5 74 -0.1 31.8 0 0
13:17 1021 30.15 851 25.13 4.1 39.4 76 0.4 32.6 0 0
13:18 1021 30.15 851 25.13 4.1 39.4 79 0.8 33.4 0 0
13:19 1021 30.15 851 25.13 4.1 39.5 74 -0.1 31.9 0 0
13:20 1021 30.15 851 25.13 4.1 39.4 75 0.1 32.2 0 0
13:21 1021 30.15 851 25.13 4.1 39.4 75 0.1 32.1 0 0
13:22 1021 30.15 851 25.13 4.1 39.4 83 1.4 34.5 0 0
13:23 1021 30.15 851 25.13 4.3 39.7 77 0.6 33.2 0 0
13:24 1021 30.15 851 25.13 4.4 39.9 82 1.5 34.8 0 0
13:25 1021 30.15 851 25.13 4.5 40.1 75 0.4 32.7 0 0
13:26 1021 30.15 851 25.13 4.4 40 80 1.2 34.2 0 0
13:27 1021 30.15 851 25.13 4.5 40.2 76 0.6 33.1 0 0
13:28 1021 30.15 851 25.13 4.6 40.3 75 0.5 32.9 0 0
13:29 1021 30.15 851 25.13 4.8 40.7 79 1.5 34.7 0 0
13:30 1021 30.15 851 25.13 4.9 40.8 77 1.2 34.1 0 0
13:31 1021 30.15 851 25.13 5 41.1 70 -0.1 31.9 0 0
13:32 1021 30.15 851 25.13 5.2 41.3 72 0.6 33 0 0
13:33 1021 30.15 851 25.13 5.3 41.5 65 -0.9 30.4 0 0
13:34 1021 30.15 851 25.13 5.3 41.6 66 -0.6 31 0 0
13:35 1021 30.15 851 25.13 5.5 41.9 75 1.3 34.4 0 0
13:36 1021 30.15 851 25.13 5.5 42 67 0 32 0 0
13:37 1021 30.15 851 25.13 5.4 41.8 75 1.3 34.3 0 0
13:38 1021 30.15 851 25.13 5.5 41.9 65 -0.5 31.1 0 0
13:39 1021 30.15 851 25.13 5.6 42 71 0.7 33.3 0 0
13:40 1021 30.15 850 25.1 5.6 42 66 -0.2 31.6 0 0
13:41 1021 30.15 850 25.1 5.6 42 70 0.5 32.8 0 0
13:42 1021 30.15 850 25.1 5.5 41.9 68 0.2 32.3 0 0
13:43 1021 30.15 850 25.1 5.6 42.1 71 0.8 33.5 0 0
13:44 1021 30.15 850 25.1 5.8 42.5 72 1.1 34.1 0 0
13:45 1021 30.15 850 25.1 6 42.7 68 0.5 33 0 0
13:46 1021 30.15 850 25.1 5.9 42.6 66 -0 32 0 0
13:47 1021 30.15 850 25.1 5.8 42.5 66 0 32 0 0
13:48 1021 30.15 850 25.1 5.8 42.5 65 -0.1 31.7 0 0
13:49 1021 30.15 850 25.1 5.7 42.3 66 -0.1 31.7 0 0
13:50 1021 30.15 850 25.1 5.7 42.3 80 2.6 36.7 0 0
13:51 1021 30.15 850 25.1 6 42.7 72 1.3 34.4 0 0
13:52 1021 30.15 850 25.1 6 42.8 71 1.1 33.9 0 0
13:53 1021 30.15 850 25.1 6 42.9 76 2.1 35.7 0 0
13:54 1021 30.15 850 25.1 6.2 43.2 66 0.3 32.6 0 0
13:55 1021 30.15 850 25.1 6.4 43.5 67 0.8 33.4 0 0
13:56 1021 30.15 850 25.1 6.5 43.7 68 1 33.9 0 0
13:57 1021 30.15 850 25.1 6.5 43.8 69 1.4 34.5 0 0
13:58 1021 30.15 850 25.1 6.6 43.8 60 -0.7 30.7 0 0
13:59 1021 30.15 850 25.1 6.6 43.8 69 1.4 34.5 0 0
14:00 1021 30.15 850 25.1 6.7 44.1 66 0.9 33.6 0 0
14:01 1021 30.15 850 25.1 6.9 44.4 70 1.8 35.2 0 0
14:02 1021 30.15 850 25.1 7 44.5 66 1.1 34.1 0 0
14:03 1021 30.15 850 25.1 6.8 44.3 64 0.4 32.8 0 0
14:04 1021 30.15 850 25.1 6.6 43.9 75 2.6 36.6 0 0
14:05 1021 30.15 850 25.1 6.7 44 69 1.4 34.4 0 0
14:06 1021 30.15 850 25.1 6.6 43.9 65 0.6 33 0 0
14:07 1021 30.15 850 25.1 6.6 43.8 69 1.4 34.5 0 0
14:08 1021 30.15 850 25.1 6.7 44 74 2.4 36.3 0 0
14:09 1021 30.15 850 25.1 6.8 44.3 64 0.6 33.1 0 0
14:10 1021 30.15 850 25.1 6.8 44.2 66 0.8 33.4 0 0
14:11 1021 30.15 850 25.1 6.7 44.1 60 -0.4 31.2 0 0
14:12 1021 30.15 850 25.1 6.7 44.1 59 -0.6 30.9 0 0
14:13 1021 30.15 850 25.1 6.7 44.1 63 0.3 32.5 0 0
14:14 1021 30.15 850 25.1 6.9 44.5 61 -0.1 31.8 0 0
14:15 1021 30.15 850 25.1 7 44.7 67 1.4 34.5 0 0
14:16 1021 30.15 850 25.1 7.2 44.9 65 1 33.8 0 0
14:17 1021 30.15 850 25.1 7.2 44.9 60 -0 31.9 0 0
14:18 1021 30.15 850 25.1 6.9 44.5 60 -0.2 31.6 0 0
14:19 1021 30.15 850 25.1 6.9 44.4 66 0.9 33.7 0 0
14:20 1021 30.15 850 25.1 6.9 44.4 67 1.1 34 0 0
14:21 1021 30.15 850 25.1 6.9 44.5 61 -0.1 31.8 0 0
14:22 1021 30.15 850 25.1 7 44.5 66 1.1 34 0 0
14:23 1021 30.15 850 25.1 7.1 44.7 68 1.6 34.8 0 0
14:24 1021 30.15 850 25.1 7.2 44.9 61 0.3 32.5 0 0
14:25 1021 30.15 850 25.1 7 44.7 57 -0.8 30.6 0 0
14:26 1021 30.15 850 25.1 6.9 44.5 65 0.7 33.3 0 0
14:27 1021 30.15 850 25.1 7 44.5 66 1.1 34 0 0
14:28 1021 30.15 850 25.1 7 44.7 67 1.3 34.4 0 0
14:29 1021 30.15 850 25.1 7.3 45.1 56 -0.8 30.5 0 0
14:30 1021 30.15 850 25.1 7.3 45.2 59 -0.1 31.9 0 0
14:31 1021 30.15 850 25.1 7.3 45.1 55 -1.2 29.8 0 0
14:32 1021 30.15 850 25.1 7.1 44.7 60 -0.1 31.8 0 0
14:33 1021 30.15 850 25.1 7.1 44.7 65 1 33.8 0 0
14:34 1021 30.15 850 25.1 7.2 45 54 -1.4 29.4 0 0
14:35 1021 30.15 850 25.1 7.4 45.3 62 0.7 33.2 0 0
14:36 1021 30.15 850 25.1 7.5 45.5 59 0.2 32.3 0 0
14:37 1021 30.15 850 25.1 7.7 45.8 52 -1.6 29.2 0 0
14:38 1021 30.15 850 25.1 7.7 45.9 53 -1.2 29.8 0 0
14:39 1021 30.15 850 25.1 7.7 45.8 61 0.6 33.2 0 0
14:40 1021 30.15 850 25.1 7.7 45.9 59 0.2 32.4 0 0
14:41 1021 30.15 850 25.1 7.7 45.8 58 -0.2 31.7 0 0
14:42 1021 30.15 850 25.1 7.4 45.4 57 -0.4 31.2 0 0
14:43 1021 30.15 850 25.1 7.2 45 59 -0.3 31.5 0 0
14:44 1021 30.15 850 25.1 7.2 45 61 0.2 32.4 0 0
14:45 1021 30.15 850 25.1 7.3 45.2 57 -0.7 30.7 0 0
14:46 1021 30.15 850 25.1 7.3 45.2 55 -1.1 30.1 0 0
14:47 1021 30.15 850 25.1 7.3 45.2 57 -0.5 31.1 0 0
14:48 1021 30.15 850 25.1 7.3 45.2 62 0.6 33.1 0 0
14:49 1021 30.15 850 25.1 7.4 45.3 59 -0.2 31.7 0 0
14:50 1021 30.15 850 25.1 7.4 45.4 59 -0.1 31.9 0 0
14:51 1021 30.15 850 25.1 7.4 45.4 65 1.4 34.5 0 0
14:52 1021 30.15 850 25.1 7.4 45.3 64 1 33.8 0 0
14:53 1021 30.15 850 25.1 7.3 45.1 55 -1.1 30.1 0 0
14:54 1021 30.15 850 25.1 7.1 44.8 61 0 32.1 0 0
14:55 1021 30.15 850 25.1 7.1 44.7 59 -0.4 31.3 0 0
14:56 1021 30.15 850 25.1 7 44.7 55 -1.4 29.5 0 0
14:57 1021 30.15 850 25.1 6.9 44.5 57 -1 30.3 0 0
14:58 1021 30.15 850 25.1 7 44.5 55 -1.4 29.4 0 0
14:59 1021 30.15 850 25.1 7 44.6 59 -0.3 31.4 0 0
15:00 1021 30.15 850 25.1 7 44.6 58 -0.7 30.8 0 0
15:01 1021 30.15 850 25.1 6.9 44.5 57 -0.9 30.4 0 0
15:02 1021 30.15 850 25.1 6.8 44.3 58 -0.8 30.6 0 0
15:03 1021 30.15 850 25.1 6.7 44.1 54 -1.8 28.7 0 0
15:04 1021 30.15 850 25.1 6.7 44 60 -0.6 30.9 0 0
15:05 1021 30.15 850 25.1 6.7 44.1 61 -0.2 31.7 0 0
15:06 1021 30.15 850 25.1 6.8 44.2 64 0.4 32.7 0 0
15:07 1021 30.15 850 25.1 6.8 44.3 55 -1.5 29.4 0 0
15:08 1021 30.15 850 25.1 6.9 44.4 52 -2.1 28.1 0 0
15:09 1021 30.15 850 25.1 6.8 44.3 56 -1.3 29.6 0 0
15:10 1021 30.15 850 25.1 6.8 44.3 55 -1.4 29.4 0 0
15:11 1021 30.15 850 25.1 6.8 44.3 60 -0.3 31.5 0 0
15:12 1021 30.15 850 25.1 6.8 44.3 62 0.1 32.1 0 0
15:13 1021 30.15 850 25.1 7 44.6 53 -1.8 28.7 0 0
15:14 1021 30.15 850 25.1 7.2 44.9 52 -1.9 28.6 0 0
15:15 1021 30.15 850 25.1 7.4 45.4 51 -2.1 28.2 0 0
15:16 1021 30.15 850 25.1 7.8 46.1 55 -0.7 30.7 0 0
15:17 1021 30.15 850 25.1 8.1 46.5 54 -0.7 30.8 0 0
15:18 1021 30.15 850 25.1 8.2 46.7 54 -0.6 30.9 0 0
15:19 1021 30.15 850 25.1 8.1 46.6 51 -1.5 29.3 0 0
15:20 1021 30.15 850 25.1 8 46.4 56 -0.1 31.8 0 0
15:21 1021 30.15 850 25.1 8.1 46.6 57 0.1 32.1 0 0
15:22 1021 30.15 850 25.1 8.3 46.9 66 2.3 36.2 0 0
15:23 1021 30.15 850 25.1 8.6 47.4 54 -0.2 31.6 0 0
15:24 1021 30.15 850 25.1 8.6 47.5 57 0.6 33.1 0 0
15:25 1021 30.15 850 25.1 8.5 47.2 52 -0.8 30.6 0 0
15:26 1021 30.15 850 25.1 8.2 46.7 56 -0.1 31.9 0 0
15:27 1021 30.15 850 25.1 8.1 46.5 59 0.5 32.8 0 0
15:28 1021 30.15 850 25.1 8.1 46.6 52 -1.1 30.1 0 0
15:29 1021 30.15 850 25.1 8.2 46.7 50 -1.6 29.1 0 0
15:30 1021 30.15 850 25.1 8.2 46.8 60 1 33.8 0 0
15:31 1021 30.15 850 25.1 8.2 46.8 55 -0.3 31.5 0 0
15:32 1021 30.15 850 25.1 8.4 47 55 -0.1 31.7 0 0
15:33 1021 30.15 850 25.1 8.5 47.3 56 0.4 32.7 0 0
15:34 1021 30.15 850 25.1 8.7 47.7 59 1.3 34.3 0 0
15:35 1021 30.15 850 25.1 8.7 47.7 50 -1 30.2 0 0
15:36 1021 30.15 850 25.1 8.8 47.8 40 -4 24.9 0 0
15:37 1021 30.15 850 25.1 8.8 47.9 45 -2.5 27.5 0 0
15:38 1021 30.15 850 25.1 8.9 48 47 -1.7 28.9 0 0
15:39 1021 30.15 850 25.1 8.9 48 44 -2.5 27.5 0 0
15:40 1021 30.15 850 25.1 9 48.2 47 -1.6 29.2 0 0
15:41 1021 30.15 850 25.1 9.2 48.6 43 -2.8 26.9 0 0
15:42 1021 30.15 850 25.1 9.4 48.8 50 -0.5 31.1 0 0
15:43 1021 30.15 850 25.1 9.4 48.9 40 -3.6 25.5 0 0
15:44 1021 30.15 850 25.1 9.3 48.8 44 -2.2 28 0 0
15:45 1021 30.15 850 25.1 9.3 48.8 38 -4.1 24.7 0 0
15:46 1021 30.15 850 25.1 9.3 48.8 43 -2.4 27.6 0 0
15:47 1021 30.15 850 25.1 9.4 48.9 36 -4.9 23.2 0 0
15:48 1021 30.15 850 25.1 9.4 48.9 34 -5.7 21.8 0 0
15:49 1021 30.15 850 25.1 9.3 48.7 37 -4.8 23.4 0 0
15:50 1021 30.15 850 25.1 9.3 48.7 38 -4.4 24 0 0
15:51 1021 30.15 850 25.1 9.3 48.8 39 -4 24.8 0 0
15:52 1021 30.15 850 25.1 9.4 48.8 40 -3.7 25.4 0 0
15:53 1021 30.15 850 25.1 9.3 48.7 35 -5.4 22.3 0 0
15:54 1021 30.15 850 25.1 9.3 48.7 46 -1.7 28.9 0 0
15:55 1021 30.15 850 25.1 9.2 48.6 39 -4.1 24.6 0 0
15:56 1021 30.15 850 25.1 9.3 48.7 36 -5 23 0 0
15:57 1021 30.15 850 25.1 9.3 48.7 39 -3.8 25.1 0 0
15:58 1021 30.15 850 25.1 9.2 48.6 41 -3.3 26.1 0 0
15:59 1021 30.15 850 25.1 9.1 48.4 33 -6.5 20.4 0 0
16:00 1021 30.15 850 25.1 8.9 48.1 37 -5.1 22.8 0 0
16:01 1021 30.15 850 25.1 8.9 48 41 -3.8 25.2 0 0
16:02 1021 30.15 850 25.1 8.9 48 40 -4 24.8 0 0
16:03 1021 30.15 850 25.1 8.9 48 37 -4.9 23.3 0 0
16:04 1021 30.15 850 25.1 8.8 47.9 40 -3.9 25 0 0
16:05 1021 30.15 850 25.1 8.8 47.8 33 -6.7 20 0 0
16:06 1021 30.15 850 25.1 8.9 48 35 -5.6 21.9 0 0
16:07 1021 30.15 850 25.1 9 48.3 41 -3.4 26 0 0
16:08 1021 30.15 850 25.1 9.3 48.7 43 -2.6 27.3 0 0
16:09 1021 30.15 850 25.1 9.6 49.3 31 -6.6 20.2 0 0
16:10 1021 30.15 850 25.1 9.7 49.5 39 -3.5 25.6 0 0
16:11 1021 30.15 850 25.1 9.6 49.3 38 -4.1 24.6 0 0
16:12 1021 30.15 850 25.1 9.4 48.9 37 -4.7 23.6 0 0
16:13 1021 30.15 850 25.1 9.1 48.4 38 -4.6 23.7 0 0
16:14 1021 30.15 850 25.1 8.9 48 36 -5.5 22.2 0 0
16:15 1021 30.15 850 25.1 8.8 47.8 39 -4.3 24.2 0 0
16:16 1021 30.15 850 25.1 8.7 47.7 38 -4.9 23.2 0 0
16:17 1021 30.15 850 25.1 9 48.1 40 -4 24.7 0 0
16:18 1021 30.15 850 25.1 9.3 48.8 43 -2.6 27.4 0 0
16:19 1021 30.15 850 25.1 9.5 49.2 30 -7.3 18.9 0 0
16:20 1021 30.15 850 25.1 9.3 48.7 34 -5.9 21.4 0 0
16:21 1021 30.15 850 25.1 9.1 48.3 38 -4.6 23.7 0 0
16:22 1021 30.15 850 25.1 9 48.2 41 -3.5 25.7 0 0
16:23 1021 30.15 850 25.1 9.1 48.4 33 -6.2 20.9 0 0
16:24 1021 30.15 850 25.1 9 48.3 35 -5.7 21.8 0 0
16:25 1021 30.15 850 25.1 8.8 47.9 36 -5.5 22.2 0 0
16:26 1021 30.15 850 25.1 8.7 47.6 37 -5.3 22.4 0 0
16:27 1021 30.15 850 25.1 8.5 47.4 40 -4.4 24.1 0 0
16:28 1021 30.15 850 25.1 8.5 47.3 35 -6 21.3 0 0
16:29 1021 30.15 850 25.1 8.4 47.1 36 -5.6 21.8 0 0
16:30 1021 30.15 850 25.1 8.4 47.2 34 -6.6 20.1 0 0
16:31 1021 30.15 850 25.1 8.7 47.6 39 -4.6 23.7 0 0
16:32 1021 30.15 850 25.1 9 48.2 47 -1.6 29.2 0 0
16:33 1021 30.15 850 25.1 9.3 48.7 37 -4.8 23.4 0 0
16:34 1020 30.12 850 25.1 9.4 48.9 32 -6.5 20.4 0 0
16:35 1020 30.12 850 25.1 9.4 48.8 33 -6.1 21.1 0 0
16:36 1020 30.12 850 25.1 9.3 48.7 37 -4.8 23.4 0 0
16:37 1020 30.12 850 25.1 9.2 48.6 34 -5.7 21.7 0 0
16:38 1021 30.15 850 25.1 9.1 48.3 33 -6.5 20.3 0 0
16:39 1021 30.15 850 25.1 9 48.1 32 -6.9 19.5 0 0
16:40 1020 30.12 850 25.1 8.8 47.9 35 -5.7 21.7 0 0
16:41 1020 30.12 850 25.1 8.7 47.7 37 -5.1 22.8 0 0
16:42 1021 30.15 850 25.1 8.7 47.7 32 -7.1 19.2 0 0
16:43 1020 30.12 850 25.1 8.8 47.8 31 -7.3 18.9 0 0
16:44 1020 30.12 850 25.1 9 48.1 32 -6.8 19.8 0 0
16:45 1020 30.12 850 25.1 9.1 48.3 32 -6.8 19.7 0 0
16:46 1020 30.12 850 25.1 9.1 48.4 29 -7.8 17.9 0 0
16:47 1020 30.12 850 25.1 9 48.3 36 -5.2 22.7 0 0
16:48 1020 30.12 850 25.1 9 48.3 32 -6.6 20.1 0 0
16:49 1020 30.12 850 25.1 9 48.3 31 -7.3 18.9 0 0
16:50 1020 30.12 850 25.1 8.9 48 33 -6.7 19.9 0 0
16:51 1021 30.15 850 25.1 8.8 47.8 32 -7 19.5 0 0
16:52 1020 30.12 850 25.1 8.7 47.7 29 -8.4 16.9 0 0
16:53 1020 30.12 850 25.1 8.6 47.5 29 -8.4 17 0 0
16:54 1020 30.12 850 25.1 8.6 47.4 31 -7.8 17.9 0 0
16:55 1020 30.12 850 25.1 8.6 47.4 42 -3.5 25.6 0 0
16:56 1020 30.12 850 25.1 8.6 47.5 31 -7.8 18 0 0
16:57 1020 30.12 850 25.1 8.8 47.8 35 -5.9 21.3 0 0
16:58 1020 30.12 850 25.1 8.9 48 31 -7.3 18.9 0 0
16:59 1020 30.12 850 25.1 8.9 48 31 -7.4 18.7 0 0
17:00 1020 30.12 850 25.1 9 48.1 31 -7.4 18.7 0 0
17:01 1020 30.12 850 25.1 9.2 48.5 34 -5.9 21.4 0 0
17:02 1020 30.12 850 25.1 9.5 49 31 -6.7 19.9 0 0
17:03 1020 30.12 850 25.1 9.7 49.4 34 -5.3 22.4 0 0
17:04 1020 30.12 850 25.1 10 50 34 -5.2 22.7 0 0
17:05 1020 30.12 850 25.1 10.2 50.3 29 -7.1 19.3 0 0
17:06 1020 30.12 850 25.1 10.1 50.3 30 -6.5 20.4 0 0
17:07 1020 30.12 850 25.1 10.1 50.2 31 -6.1 21 0 0
17:08 1020 30.12 850 25.1 10.1 50.2 30 -6.7 20 0 0
17:09 1020 30.12 850 25.1 10 50 32 -6 21.2 0 0
17:10 1020 30.12 850 25.1 10 50 27 -7.9 17.7 0 0
17:11 1020 30.12 850 25.1 10 50 31 -6.5 20.2 0 0
17:12 1020 30.12 850 25.1 10.1 50.2 35 -4.5 23.8 0 0
17:13 1020 30.12 850 25.1 10.2 50.4 31 -6 21.2 0 0
17:14 1020 30.12 850 25.1 10.3 50.6 31 -5.9 21.3 0 0
17:15 1020 30.12 850 25.1 10.4 50.6 32 -5.7 21.8 0 0
17:16 1020 30.12 850 25.1 10.3 50.6 31 -6 21.2 0 0
17:17 1020 30.12 850 25.1 10.4 50.6 33 -5.3 22.4 0 0
17:18 1020 30.12 850 25.1 10.3 50.5 29 -7.1 19.2 0 0
17:19 1020 30.12 850 25.1 10.2 50.4 32 -5.6 21.9 0 0
17:20 1020 30.12 850 25.1 10.1 50.2 31 -6.1 21.1 0 0
17:21 1020 30.12 850 25.1 10 50.1 29 -7.3 18.8 0 0
17:22 1020 30.12 850 25.1 9.9 49.9 27 -8.1 17.5 0 0
17:23 1020 30.12 850 25.1 9.9 49.8 30 -6.8 19.8 0 0
17:24 1020 30.12 850 25.1 9.8 49.6 31 -6.7 20 0 0
17:25 1020 30.12 850 25.1 9.9 49.7 33 -5.7 21.8 0 0
17:26 1020 30.12 850 25.1 9.9 49.9 37 -4.2 24.5 0 0
17:27 1020 30.12 850 25.1 10 49.9 31 -6.5 20.3 0 0
17:28 1020 30.12 850 25.1 9.9 49.9 27 -8.3 17.1 0 0
17:29 1020 30.12 850 25.1 9.9 49.8 28 -7.6 18.3 0 0
17:30 1020 30.12 850 25.1 9.8 49.6 33 -5.8 21.6 0 0
17:31 1020 30.12 850 25.1 9.8 49.7 30 -7 19.4 0 0
17:32 1020 30.12 850 25.1 9.8 49.6 27 -8.1 17.3 0 0
17:33 1020 30.12 850 25.1 9.7 49.5 30 -6.9 19.7 0 0
17:34 1020 30.12 850 25.1 9.8 49.6 36 -4.5 23.9 0 0
17:35 1021 30.15 850 25.1 9.9 49.7 30 -6.8 19.7 0 0
17:36 1021 30.15 850 25.1 9.9 49.7 28 -7.7 18.1 0 0
17:37 1020 30.12 850 25.1 9.9 49.7 28 -7.7 18.2 0 0
17:38 1020 30.12 850 25.1 9.8 49.7 28 -7.6 18.3 0 0
17:39 1020 30.12 850 25.1 9.8 49.6 33 -5.9 21.4 0 0
17:40 1021 30.15 850 25.1 9.8 49.7 29 -7.3 18.9 0 0
17:41 1021 30.15 850 25.1 9.7 49.5 30 -7 19.4 0 0
17:42 1021 30.15 850 25.1 9.7 49.4 28 -7.7 18.1 0 0
17:43 1021 30.15 850 25.1 9.6 49.3 29 -7.4 18.7 0 0
17:44 1021 30.15 850 25.1 9.5 49 30 -7.4 18.7 0 0
17:45 1021 30.15 850 25.1 9.4 48.9 28 -8.3 17 0 0
17:46 1021 30.15 850 25.1 9.4 48.9 33 -6.2 20.8 0 0
17:47 1021 30.15 850 25.1 9.4 48.9 27 -8.6 16.5 0 0
17:48 1021 30.15 850 25.1 9.4 48.9 29 -7.8 17.9 0 0
17:49 1021 30.15 850 25.1 9.4 48.9 25 -9.7 14.6 0 0
17:50 1021 30.15 850 25.1 9.4 48.9 28 -8.1 17.5 0 0
17:51 1021 30.15 850 25.1 9.4 49 28 -8 17.5 0 0
17:52 1021 30.15 850 25.1 9.5 49 28 -8.4 16.9 0 0
17:53 1021 30.15 850 25.1 9.4 49 29 -7.7 18.2 0 0
17:54 1021 30.15 850 25.1 9.4 49 27 -8.4 16.8 0 0
17:55 1021 30.15 850 25.1 9.4 48.9 30 -7.2 19 0 0
17:56 1021 30.15 850 25.1 9.4 48.9 33 -6.2 20.8 0 0
17:57 1021 30.15 850 25.1 9.5 49.1 28 -8 17.6 0 0
17:58 1021 30.15 850 25.1 9.5 49.1 30 -7.4 18.7 0 0
17:59 1021 30.15 850 25.1 9.5 49.1 29 -7.9 17.9 0 0
18:00 1021 30.15 850 25.1 9.6 49.2 30 -7.2 19 0 0
18:01 1021 30.15 850 25.1 9.6 49.2 27 -8.4 17 0 0
18:02 1021 30.15 850 25.1 9.6 49.2 29 -7.5 18.4 0 0
18:03 1021 30.15 850 25.1 9.5 49.2 32 -6.4 20.5 0 0
18:04 1021 30.15 850 25.1 9.5 49.2 31 -6.8 19.7 0 0
18:05 1021 30.15 850 25.1 9.5 49.1 26 -9.1 15.6 0 0
18:06 1021 30.15 850 25.1 9.5 49.1 27 -8.6 16.5 0 0
18:07 1021 30.15 850 25.1 9.4 49 30 -7.2 19 0 0
18:08 1021 30.15 850 25.1 9.4 48.9 30 -7.1 19.2 0 0
18:09 1021 30.15 850 25.1 9.4 49 31 -6.9 19.6 0 0
18:10 1021 30.15 850 25.1 9.5 49.2 31 -6.8 19.8 0 0
18:11 1021 30.15 850 25.1 9.6 49.2 30 -7.2 19 0 0
18:12 1021 30.15 850 25.1 9.6 49.4 27 -8.3 17.1 0 0
18:13 1021 30.15 850 25.1 9.7 49.4 31 -6.4 20.5 0 0
18:14 1021 30.15 850 25.1 9.7 49.4 31 -6.5 20.3 0 0
18:15 1020 30.12 850 25.1 9.6 49.3 27 -8.4 16.9 0 0
18:16 1020 30.12 850 25.1 9.6 49.2 30 -7 19.4 0 0
18:17 1020 30.12 850 25.1 9.5 49.2 31 -7 19.5 0 0
18:18 1020 30.12 850 25.1 9.5 49.2 25 -9.3 15.2 0 0
18:19 1020 30.12 850 25.1 9.5 49.1 27 -8.4 17 0 0
18:20 1020 30.12 850 25.1 9.5 49 28 -8.3 17.1 0 0
18:21 1021 30.15 850 25.1 9.4 49 28 -8.1 17.4 0 0
18:22 1020 30.12 850 25.1 9.4 48.9 26 -9.4 15.1 0 0
18:23 1020 30.12 850 25.1 9.3 48.8 27 -8.8 16.2 0 0
18:24 1020 30.12 850 25.1 9.3 48.7 29 -8 17.6 0 0
18:25 1020 30.12 850 25.1 9.3 48.7 25 -9.8 14.4 0 0
18:26 1020 30.12 850 25.1 9.3 48.7 29 -8 17.6 0 0
18:27 1020 30.12 850 25.1 9.3 48.7 29 -8 17.6 0 0
18:28 1020 30.12 850 25.1 9.3 48.7 26 -9 15.7 0 0
18:29 1020 30.12 850 25.1 9.2 48.6 27 -8.8 16.1 0 0
18:30 1020 30.12 850 25.1 9.2 48.6 28 -8.6 16.6 0 0
18:31 1020 30.12 850 25.1 9.3 48.7 29 -7.7 18.1 0 0
18:32 1020 30.12 850 25.1 9.3 48.7 25 -9.9 14.2 0 0
18:33 1020 30.12 850 25.1 9.3 48.7 32 -6.7 19.9 0 0
18:34 1021 30.15 850 25.1 9.3 48.7 28 -8.1 17.4 0 0
18:35 1021 30.15 850 25.1 9.2 48.6 27 -9 15.7 0 0
18:36 1020 30.12 850 25.1 9.2 48.5 30 -7.5 18.5 0 0
18:37 1020 30.12 850 25.1 9.2 48.5 29 -8.1 17.4 0 0
18:38 1020 30.12 850 25.1 9.2 48.6 26 -9.3 15.3 0 0
18:39 1020 30.12 850 25.1 9.2 48.6 28 -8.6 16.6 0 0
18:40 1021 30.15 850 25.1 9.2 48.6 23 -11 12.2 0 0
18:41 1021 30.15 850 25.1 9.2 48.5 25 -10 14 0 0
18:42 1021 30.15 850 25.1 9.2 48.5 28 -8.6 16.5 0 0
18:43 1021 30.15 850 25.1 9.1 48.4 27 -8.9 16 0 0
18:44 1020 30.12 850 25.1 9.1 48.4 26 -9.4 15.1 0 0
18:45 1021 30.15 850 25.1 9.2 48.5 26 -9.5 14.9 0 0
18:46 1021 30.15 850 25.1 9.1 48.4 25 -9.9 14.1 0 0
18:47 1021 30.15 850 25.1 9.1 48.4 25 -9.8 14.4 0 0
18:48 1020 30.12 850 25.1 9.1 48.4 28 -8.6 16.6 0 0
18:49 1020 30.12 850 25.1 9.2 48.5 25 -9.9 14.2 0 0
18:50 1021 30.15 850 25.1 9.2 48.5 24 -10.1 13.8 0 0
18:51 1021 30.15 850 25.1 9.1 48.4 30 -7.6 18.4 0 0
18:52 1021 30.15 850 25.1 9.1 48.4 25 -9.8 14.4 0 0
18:53 1021 30.15 850 25.1 9.1 48.3 27 -9 15.9 0 0
18:54 1021 30.15 850 25.1 9 48.2 27 -9.1 15.6 0 0
18:55 1021 30.15 850 25.1 9 48.2 28 -8.4 16.9 0 0
18:56 1021 30.15 850 25.1 9 48.2 26 -9.7 14.6 0 0
18:57 1021 30.15 850 25.1 9 48.2 26 -9.5 14.9 0 0
18:58 1021 30.15 850 25.1 9 48.2 27 -8.9 16 0 0
18:59 1021 30.15 850 25.1 9 48.2 27 -9.1 15.6 0 0
19:00 1021 30.15 850 25.1 8.9 48 32 -6.7 19.9 0 0
19:01 1021 30.15 850 25.1 8.8 47.9 33 -6.6 20.1 0 0
19:02 1021 30.15 850 25.1 8.9 47.9 30 -7.6 18.4 0 0
19:03 1021 30.15 850 25.1 8.9 47.9 31 -7.4 18.6 0 0
19:04 1021 30.15 850 25.1 8.8 47.9 29 -8.4 16.9 0 0
19:05 1021 30.15 850 25.1 8.8 47.9 26 -9.6 14.8 0 0
19:06 1021 30.15 850 25.1 8.8 47.9 27 -9.3 15.3 0 0
19:07 1021 30.15 850 25.1 8.8 47.8 28 -8.6 16.5 0 0
19:08 1021 30.15 850 25.1 8.8 47.8 30 -7.7 18.1 0 0
19:09 1021 30.15 850 25.1 8.7 47.7 29 -8.2 17.2 0 0
19:10 1021 30.15 850 25.1 8.7 47.6 28 -9 15.8 0 0
19:11 1021 30.15 850 25.1 8.6 47.6 27 -9.2 15.4 0 0
19:12 1021 30.15 850 25.1 8.6 47.4 31 -7.8 18 0 0
19:13 1021 30.15 850 25.1 8.5 47.3 32 -7.4 18.7 0 0
19:14 1021 30.15 850 25.1 8.5 47.3 26 -10 14 0 0
19:15 1021 30.15 850 25.1 8.5 47.4 27 -9.4 15 0 0
19:16 1021 30.15 850 25.1 8.5 47.3 29 -8.7 16.4 0 0
19:17 1021 30.15 850 25.1 8.5 47.4 29 -8.7 16.4 0 0
19:18 1021 30.15 850 25.1 8.5 47.4 28 -8.8 16.2 0 0
19:19 1021 30.15 850 25.1 8.5 47.2 31 -7.7 18.2 0 0
19:20 1021 30.15 850 25.1 8.4 47.2 29 -8.6 16.6 0 0
19:21 1021 30.15 850 25.1 8.4 47.2 29 -8.5 16.8 0 0
19:22 1021 30.15 850 25.1 8.4 47.1 29 -8.7 16.3 0 0
19:23 1021 30.15 850 25.1 8.5 47.2 27 -9.3 15.3 0 0
19:24 1021 30.15 850 25.1 8.4 47.2 31 -7.5 18.4 0 0
19:25 1021 30.15 850 25.1 8.3 47 31 -7.9 17.8 0 0
19:26 1021 30.15 850 25.1 8.3 46.9 31 -8 17.6 0 0
19:27 1021 30.15 850 25.1 8.2 46.8 29 -9 15.8 0 0
19:28 1021 30.15 850 25.1 8.2 46.8 30 -8.3 17 0 0
19:29 1021 30.15 850 25.1 8.3 46.9 29 -8.7 16.4 0 0
19:30 1021 30.15 850 25.1 8.2 46.8 28 -9 15.7 0 0
19:31 1021 30.15 850 25.1 8.2 46.8 29 -8.8 16.1 0 0
19:32 1021 30.15 850 25.1 8.2 46.8 30 -8.3 17 0 0
19:33 1021 30.15 850 25.1 8.2 46.8 30 -8.5 16.7 0 0
19:34 1021 30.15 850 25.1 8.2 46.8 35 -6.4 20.4 0 0
19:35 1021 30.15 850 25.1 8.1 46.5 33 -7.1 19.2 0 0
19:36 1021 30.15 850 25.1 8 46.4 31 -8.1 17.5 0 0
19:37 1021 30.15 850 25.1 8 46.4 31 -8.2 17.2 0 0
19:38 1021 30.15 850 25.1 7.9 46.3 32 -7.6 18.2 0 0
19:39 1021 30.15 850 25.1 7.9 46.2 31 -8.1 17.5 0 0
19:40 1021 30.15 850 25.1 7.8 46.1 31 -8.5 16.8 0 0
19:41 1021 30.15 850 25.1 7.8 46 32 -8 17.6 0 0
19:42 1021 30.15 850 25.1 7.8 46 35 -6.9 19.5 0 0
19:43 1021 30.15 850 25.1 7.7 45.8 35 -6.8 19.7 0 0
19:44 1021 30.15 850 25.1 7.6 45.7 33 -7.7 18.2 0 0
19:45 1021 30.15 850 25.1 7.6 45.6 35 -6.8 19.8 0 0
19:46 1021 30.15 850 25.1 7.5 45.4 34 -7.5 18.5 0 0
19:47 1021 30.15 850 25.1 7.5 45.4 33 -7.6 18.3 0 0
19:48 1021 30.15 850 25.1 7.4 45.3 32 -8.2 17.3 0 0
19:49 1021 30.15 850 25.1 7.4 45.3 35 -7.2 19.1 0 0
19:50 1021 30.15 850 25.1 7.4 45.2 36 -6.8 19.8 0 0
19:51 1021 30.15 850 25.1 7.3 45.1 35 -7.1 19.3 0 0
19:52 1021 30.15 850 25.1 7.1 44.8 35 -7.1 19.1 0 0
19:53 1021 30.15 850 25.1 7.1 44.7 33 -8 17.7 0 0
19:54 1021 30.15 850 25.1 7.1 44.8 34 -7.6 18.3 0 0
19:55 1021 30.15 850 25.1 7.1 44.8 32 -8.3 17.1 0 0
19:56 1021 30.15 850 25.1 7.2 45 33 -7.9 17.8 0 0
19:57 1021 30.15 850 25.1 7.2 44.9 35 -7.2 19 0 0
19:58 1021 30.15 850 25.1 7.1 44.9 35 -7.2 19 0 0
19:59 1021 30.15 850 25.1 7 44.6 33 -8.2 17.3 0 0
20:00 1021 30.15 850 25.1 7 44.6 35 -7.3 18.9 0 0
20:01 1021 30.15 850 25.1 6.9 44.4 34 -7.8 18 0 0
20:02 1021 30.15 850 25.1 6.8 44.3 33 -8.3 17 0 0
20:03 1021 30.15 850 25.1 6.8 44.2 34 -7.9 17.8 0 0
20:04 1021 30.15 850 25.1 6.7 44.1 35 -7.6 18.4 0 0
20:05 1021 30.15 850 25.1 6.6 43.9 34 -8.3 17 0 0
20:06 1021 30.15 850 25.1 6.6 43.8 37 -7.1 19.3 0 0
20:07 1021 30.15 850 25.1 6.4 43.6 37 -7.1 19.1 0 0
20:08 1021 30.15 850 25.1 6.3 43.4 38 -7 19.3 0 0
20:09 1021 30.15 850 25.1 6.2 43.2 38 -7 19.4 0 0
20:10 1021 30.15 850 25.1 6.1 43 37 -7.5 18.6 0 0
20:11 1021 30.15 850 25.1 6.1 42.9 38 -7.1 19.2 0 0
20:12 1021 30.15 850 25.1 6 42.8 40 -6.7 20 0 0
20:13 1021 30.15 850 25.1 5.9 42.6 40 -6.6 20.1 0 0
20:14 1021 30.15 850 25.1 5.8 42.5 41 -6.5 20.2 0 0
20:15 1021 30.15 850 25.1 5.7 42.3 40 -6.7 19.9 0 0
20:16 1021 30.15 850 25.1 5.6 42.1 39 -7.4 18.8 0 0
20:17 1021 30.15 850 25.1 5.6 42.2 42 -6.3 20.6 0 0
20:18 1021 30.15 850 25.1 5.6 42.1 42 -6.2 20.9 0 0
20:19 1021 30.15 850 25.1 5.5 41.9 43 -6.2 20.8 0 0
20:20 1021 30.15 850 25.1 5.4 41.7 42 -6.5 20.3 0 0
20:21 1021 30.15 850 25.1 5.4 41.6 43 -6.1 21 0 0
20:22 1021 30.15 850 25.1 5.3 41.5 43 -6.2 20.8 0 0
20:23 1021 30.15 850 25.1 5.2 41.3 43 -6.4 20.5 0 0
20:24 1021 30.15 850 25.1 5.1 41.2 43 -6.5 20.4 0 0
20:25 1021 30.15 850 25.1 5 41.1 42 -6.7 20 0 0
20:26 1021 30.15 850 25.1 5 41.1 42 -6.7 19.9 0 0
20:27 1021 30.15 850 25.1 5.1 41.1 45 -6 21.1 0 0
20:28 1021 30.15 850 25.1 5 41 46 -5.7 21.8 0 0
20:29 1021 30.15 850 25.1 4.9 40.8 45 -6.1 21 0 0
20:30 1021 30.15 850 25.1 4.8 40.7 42 -6.9 19.6 0 0
20:31 1021 30.15 850 25.1 4.9 40.8 41 -7.1 19.2 0 0
20:32 1021 30.15 850 25.1 5 41 41 -7.3 18.9 0 0
20:33 1021 30.15 850 25.1 5.1 41.1 41 -7 19.3 0 0
20:34 1021 30.15 850 25.1 5.2 41.3 40 -7.4 18.7 0 0
20:35 1021 30.15 850 25.1 5.2 41.3 40 -7.5 18.6 0 0
20:36 1021 30.15 850 25.1 5.2 41.4 40 -7.2 19.1 0 0
20:37 1021 30.15 850 25.1 5.2 41.3 38 -7.9 17.7 0 0
20:38 1021 30.15 850 25.1 5.2 41.4 39 -7.6 18.4 0 0
20:39 1021 30.15 850 25.1 5.2 41.3 37 -8.2 17.3 0 0
20:40 1021 30.15 850 25.1 5.2 41.4 36 -8.8 16.2 0 0
20:41 1021 30.15 850 25.1 5.3 41.5 36 -8.7 16.4 0 0
20:42 1021 30.15 850 25.1 5.2 41.4 35 -9 15.7 0 0
20:43 1021 30.15 850 25.1 5.2 41.3 35 -9.2 15.5 0 0
20:44 1021 30.15 850 25.1 5.2 41.3 36 -8.9 16 0 0
20:45 1021 30.15 850 25.1 5.1 41.2 35 -9.1 15.6 0 0
20:46 1021 30.15 850 25.1 5.1 41.2 34 -9.4 15.1 0 0
20:47 1021 30.15 850 25.1 5 41.1 36 -9 15.8 0 0
20:48 1021 30.15 850 25.1 4.9 40.8 34 -9.6 14.8 0 0
20:49 1021 30.15 850 25.1 4.8 40.6 37 -8.7 16.3 0 0
20:50 1021 30.15 850 25.1 4.7 40.4 35 -9.4 15.1 0 0
20:51 1021 30.15 850 25.1 4.6 40.4 35 -9.5 14.9 0 0
20:52 1021 30.15 850 25.1 4.7 40.5 33 -10.3 13.4 0 0
20:53 1021 30.15 850 25.1 4.8 40.7 34 -9.7 14.5 0 0
20:54 1021 30.15 850 25.1 4.9 40.8 35 -9.3 15.2 0 0
20:55 1021 30.15 850 25.1 4.9 40.7 36 -8.9 16 0 0
20:56 1021 30.15 850 25.1 4.7 40.4 37 -8.9 15.9 0 0
20:57 1021 30.15 850 25.1 4.6 40.2 38 -8.5 16.7 0 0
20:58 1021 30.15 850 25.1 4.5 40.1 35 -9.8 14.3 0 0
20:59 1021 30.15 850 25.1 4.5 40.2 36 -9.3 15.3 0 0
21:00 1021 30.15 850 25.1 4.5 40.1 36 -9.5 14.9 0 0
21:01 1021 30.15 851 25.13 4.5 40.1 36 -9.4 15.1 0 0
21:02 1021 30.15 850 25.1 4.5 40.1 35 -9.6 14.7 0 0
21:03 1021 30.15 851 25.13 4.4 40 37 -8.9 16 0 0
21:04 1021 30.15 851 25.13 4.3 39.7 39 -8.5 16.6 0 0
21:05 1021 30.15 851 25.13 4.1 39.5 36 -9.6 14.7 0 0
21:06 1021 30.15 851 25.13 4.2 39.5 37 -9.2 15.5 0 0
21:07 1021 30.15 851 25.13 4.2 39.6 36 -9.7 14.6 0 0
21:08 1021 30.15 851 25.13 4.1 39.5 36 -9.5 14.9 0 0
21:09 1021 30.15 851 25.13 4.1 39.3 37 -9.2 15.4 0 0
21:10 1021 30.15 851 25.13 4 39.2 37 -9.6 14.8 0 0
21:11 1021 30.15 851 25.13 4 39.2 38 -9.1 15.6 0 0
21:12 1022 30.18 851 25.13 4 39.2 37 -9.3 15.3 0 0
21:13 1022 30.18 851 25.13 4 39.1 39 -8.8 16.1 0 0
21:14 1022 30.18 851 25.13 3.9 39 39 -9 15.8 0 0
21:15 1022 30.18 851 25.13 3.8 38.8 41 -8.4 16.9 0 0
21:16 1022 30.18 851 25.13 3.7 38.6 39 -8.9 15.9 0 0
21:17 1022 30.18 851 25.13 3.6 38.6 40 -8.7 16.4 0 0
21:18 1022 30.18 851 25.13 3.6 38.5 41 -8.3 17 0 0
21:19 1022 30.18 851 25.13 3.5 38.3 40 -8.7 16.3 0 0
21:20 1022 30.18 851 25.13 3.4 38.1 42 -8.4 16.8 0 0
21:21 1022 30.18 851 25.13 3.4 38 44 -7.6 18.3 0 0
21:22 1022 30.18 851 25.13 3.2 37.7 45 -7.7 18.1 0 0
21:23 1022 30.18 851 25.13 2.9 37.3 45 -7.9 17.9 0 0
21:24 1022 30.18 851 25.13 2.8 37 45 -8 17.6 0 0
21:25 1022 30.18 851 25.13 2.7 36.8 45 -8 17.6 0 0
21:26 1022 30.18 851 25.13 2.6 36.6 46 -7.9 17.8 0 0
21:27 1022 30.18 851 25.13 2.5 36.6 45 -8.2 17.2 0 0
21:28 1022 30.18 851 25.13 2.6 36.6 44 -8.5 16.7 0 0
21:29 1022 30.18 851 25.13 2.7 36.8 44 -8.5 16.6 0 0
21:30 1022 30.18 851 25.13 2.7 36.8 43 -8.8 16.1 0 0
21:31 1022 30.18 851 25.13 2.7 36.9 46 -7.9 17.8 0 0
21:32 1022 30.18 851 25.13 2.6 36.6 46 -7.9 17.7 0 0
21:33 1022 30.18 851 25.13 2.4 36.3 47 -7.7 18.2 0 0
21:34 1022 30.18 851 25.13 2.3 36.1 49 -7.5 18.6 0 0
21:35 1022 30.18 851 25.13 2 35.6 49 -7.5 18.5 0 0
21:36 1022 30.18 851 25.13 1.8 35.2 50 -7.5 18.6 0 0
21:37 1022 30.18 851 25.13 1.6 34.9 49 -8 17.6 0 0
21:38 1022 30.18 851 25.13 1.6 35 50 -7.7 18.2 0 0
21:39 1022 30.18 851 25.13 1.7 35 50 -7.5 18.4 0 0
21:40 1022 30.18 851 25.13 1.6 34.9 50 -7.7 18.2 0 0
21:41 1022 30.18 851 25.13 1.5 34.7 54 -6.8 19.7 0 0
21:42 1022 30.18 851 25.13 1.2 34.2 53 -7.4 18.7 0 0
21:43 1022 30.18 851 25.13 1.1 33.9 55 -7.1 19.2 0 0
21:44 1022 30.18 851 25.13 0.8 33.5 55 -7.2 19.1 0 0
21:45 1022 30.18 852 25.16 0.6 33 56 -7.3 18.8 0 0
21:46 1022 30.18 852 25.16 0.5 32.8 55 -7.6 18.2 0 0
21:47 1022 30.18 852 25.16 0.5 32.9 56 -7.2 19 0 0
21:48 1022 30.18 852 25.16 0.4 32.7 58 -7 19.5 0 0
21:49 1022 30.18 852 25.16 0.2 32.3 57 -7.3 18.8 0 0
21:50 1022 30.18 852 25.16 0.1 32.1 57 -7.4 18.7 0 0
21:51 1022 30.18 852 25.16 0 32.1 58 -7.4 18.7 0 0
21:52 1023 30.21 852 25.16 -0 32 57 -7.6 18.2 0 0
21:53 1023 30.21 852 25.16 -0 32 57 -7.4 18.6 0 0
21:54 1023 30.21 852 25.16 -0.1 31.9 57 -7.6 18.4 0 0
21:55 1023 30.21 852 25.16 -0 31.9 58 -7.3 18.8 0 0
21:56 1023 30.21 852 25.16 -0.1 31.9 55 -7.9 17.7 0 0
21:57 1023 30.21 852 25.16 0.1 32.2 53 -8.4 16.9 0 0
21:58 1023 30.21 852 25.16 0.5 32.9 50 -8.8 16.1 0 0
21:59 1023 30.21 852 25.16 0.8 33.4 53 -7.8 17.9 0 0
22:00 1023 30.21 852 25.16 0.8 33.4 52 -8 17.6 0 0
22:01 1023 30.21 852 25.16 0.7 33.2 52 -8 17.6 0 0
22:02 1023 30.21 852 25.16 0.7 33.2 53 -7.9 17.7 0 0
22:03 1023 30.21 852 25.16 0.6 33 55 -7.6 18.4 0 0
22:04 1023 30.21 852 25.16 0.4 32.7 56 -7.4 18.7 0 0
22:05 1023 30.21 852 25.16 0.2 32.4 55 -7.8 18 0 0
22:06 1023 30.21 852 25.16 0.2 32.4 54 -8 17.7 0 0
22:07 1023 30.21 852 25.16 0.2 32.3 57 -7.4 18.7 0 0
22:08 1023 30.21 852 25.16 0 32 58 -7.4 18.7 0 0
22:09 1023 30.21 852 25.16 -0.1 31.9 58 -7.4 18.7 0 0
22:10 1023 30.21 852 25.16 -0.1 31.8 57 -7.6 18.4 0 0
22:11 1023 30.21 852 25.16 -0.2 31.7 58 -7.6 18.4 0 0
22:12 1023 30.21 852 25.16 -0.2 31.6 57 -7.8 18 0 0
22:13 1023 30.21 852 25.16 -0.2 31.6 57 -7.8 17.9 0 0
22:14 1023 30.21 852 25.16 -0.2 31.6 59 -7.4 18.8 0 0
22:15 1023 30.21 852 25.16 -0.4 31.3 59 -7.4 18.7 0 0
22:16 1023 30.21 852 25.16 -0.5 31 60 -7.4 18.6 0 0
22:17 1023 30.21 852 25.16 -0.6 30.9 59 -7.6 18.4 0 0
22:18 1023 30.21 852 25.16 -0.7 30.8 59 -7.6 18.3 0 0
22:19 1023 30.21 852 25.16 -0.8 30.6 60 -7.6 18.3 0 0
22:20 1023 30.21 852 25.16 -0.8 30.5 60 -7.6 18.3 0 0
22:21 1023 30.21 852 25.16 -0.9 30.4 59 -7.8 17.9 0 0
22:22 1023 30.21 852 25.16 -0.8 30.5 58 -8 17.6 0 0
22:23 1023 30.21 852 25.16 -0.7 30.7 59 -7.9 17.8 0 0
22:24 1023 30.21 852 25.16 -0.7 30.7 59 -7.8 17.9 0 0
22:25 1023 30.21 852 25.16 -0.7 30.8 59 -7.8 18 0 0
22:26 1023 30.21 852 25.16 -0.7 30.7 59 -7.8 17.9 0 0
22:27 1023 30.21 852 25.16 -0.7 30.7 59 -7.9 17.9 0 0
22:28 1023 30.21 852 25.16 -0.8 30.5 59 -7.8 18 0 0
22:29 1023 30.21 852 25.16 -0.9 30.5 61 -7.6 18.4 0 0
22:30 1023 30.21 852 25.16 -1 30.3 61 -7.6 18.4 0 0
22:31 1023 30.21 852 25.16 -1.1 30 62 -7.5 18.5 0 0
22:32 1023 30.21 852 25.16 -1.2 29.8 62 -7.5 18.4 0 0
22:33 1023 30.21 852 25.16 -1.3 29.7 62 -7.6 18.4 0 0
22:34 1023 30.21 852 25.16 -1.3 29.6 64 -7.4 18.7 0 0
22:35 1023 30.21 852 25.16 -1.4 29.5 64 -7.4 18.6 0 0
22:36 1023 30.21 852 25.16 -1.4 29.4 64 -7.4 18.7 0 0
22:37 1023 30.21 852 25.16 -1.5 29.4 64 -7.4 18.6 0 0
22:38 1023 30.21 852 25.16 -1.5 29.3 64 -7.4 18.7 0 0
22:39 1023 30.21 852 25.16 -1.5 29.3 64 -7.5 18.4 0 0
22:40 1023 30.21 852 25.16 -1.5 29.3 63 -7.6 18.3 0 0
22:41 1023 30.21 852 25.16 -1.5 29.2 63 -7.7 18.1 0 0
22:42 1023 30.21 852 25.16 -1.5 29.3 63 -7.5 18.5 0 0
22:43 1023 30.21 852 25.16 -1.6 29.2 64 -7.5 18.5 0 0
22:44 1023 30.21 853 25.19 -1.6 29.1 64 -7.6 18.4 0 0
22:45 1023 30.21 852 25.16 -1.7 29 63 -7.8 18 0 0
22:46 1023 30.21 852 25.16 -1.7 29 63 -7.8 18 0 0
22:47 1023 30.21 853 25.19 -1.6 29.1 62 -7.9 17.8 0 0
22:48 1023 30.21 853 25.19 -1.6 29.1 62 -7.9 17.7 0 0
22:49 1023 30.21 853 25.19 -1.5 29.2 62 -7.9 17.8 0 0
22:50 1023 30.21 853 25.19 -1.5 29.2 62 -7.8 17.9 0 0
22:51 1023 30.21 853 25.19 -1.6 29.2 63 -7.6 18.3 0 0
22:52 1023 30.21 853 25.19 -1.6 29.1 64 -7.6 18.4 0 0
22:53 1023 30.21 853 25.19 -1.7 28.9 65 -7.5 18.6 0 0
22:54 1023 30.21 853 25.19 -1.8 28.7 65 -7.5 18.5 0 0
22:55 1023 30.21 853 25.19 -2 28.5 66 -7.5 18.5 0 0
22:56 1023 30.21 853 25.19 -2 28.4 66 -7.5 18.4 0 0
22:57 1023 30.21 853 25.19 -2 28.4 66 -7.6 18.4 0 0
22:58 1023 30.21 853 25.19 -2 28.4 65 -7.7 18.2 0 0
22:59 1023 30.21 853 25.19 -2 28.4 66 -7.5 18.5 0 0
23:00 1023 30.21 853 25.19 -2.1 28.3 67 -7.4 18.6 0 0
23:01 1023 30.21 853 25.19 -2.2 28.1 67 -7.6 18.4 0 0
23:02 1023 30.21 853 25.19 -2.2 28.1 67 -7.5 18.5 0 0
23:03 1024 30.24 853 25.19 -2.2 28 66 -7.7 18.1 0 0
23:04 1024 30.24 853 25.19 -2.2 28.1 66 -7.6 18.4 0 0
23:05 1024 30.24 853 25.19 -2.1 28.2 66 -7.6 18.4 0 0
23:06 1024 30.24 853 25.19 -2.1 28.2 66 -7.6 18.3 0 0
23:07 1024 30.24 853 25.19 -2.1 28.2 66 -7.7 18.1 0 0
23:08 1024 30.24 853 25.19 -2.1 28.3 66 -7.7 18.2 0 0
23:09 1024 30.24 853 25.19 -2.1 28.3 65 -7.8 18 0 0
23:10 1024 30.24 853 25.19 -2 28.4 65 -7.7 18.2 0 0
23:11 1024 30.24 853 25.19 -2 28.5 65 -7.6 18.3 0 0
23:12 1024 30.24 853 25.19 -2 28.5 66 -7.5 18.4 0 0
23:13 1024 30.24 853 25.19 -2 28.4 67 -7.3 18.8 0 0
23:14 1024 30.24 853 25.19 -2.2 28 68 -7.3 18.9 0 0
23:15 1024 30.24 853 25.19 -2.4 27.7 69 -7.3 18.8 0 0
23:16 1024 30.24 853 25.19 -2.5 27.5 67 -7.7 18.1 0 0
23:17 1024 30.24 853 25.19 -2.4 27.6 67 -7.7 18.1 0 0
23:18 1024 30.24 853 25.19 -2.4 27.8 67 -7.6 18.2 0 0
23:19 1024 30.24 853 25.19 -2.2 28 65 -7.9 17.7 0 0
23:20 1024 30.24 853 25.19 -2 28.3 65 -7.8 18 0 0
23:21 1024 30.24 853 25.19 -2 28.5 65 -7.6 18.3 0 0
23:22 1024 30.24 853 25.19 -1.9 28.5 65 -7.6 18.3 0 0
23:23 1024 30.24 853 25.19 -2 28.4 66 -7.5 18.4 0 0
23:24 1024 30.24 853 25.19 -2.1 28.3 65 -7.8 18 0 0
23:25 1024 30.24 853 25.19 -2 28.4 65 -7.7 18.1 0 0
23:26 1024 30.24 853 25.19 -2 28.5 66 -7.6 18.4 0 0
23:27 1024 30.24 853 25.19 -2 28.4 65 -7.8 18 0 0
23:28 1024 30.24 853 25.19 -2 28.4 64 -7.9 17.8 0 0
23:29 1024 30.24 853 25.19 -1.9 28.6 63 -8.1 17.5 0 0
23:30 1024 30.24 853 25.19 -1.8 28.8 63 -8 17.7 0 0
23:31 1024 30.24 853 25.19 -1.7 29 63 -7.7 18.1 0 0
23:32 1024 30.24 853 25.19 -1.6 29 64 -7.5 18.4 0 0
23:33 1024 30.24 853 25.19 -1.7 28.9 64 -7.7 18.1 0 0
23:34 1024 30.24 853 25.19 -1.7 28.9 63 -7.8 17.9 0 0
23:35 1024 30.24 853 25.19 -1.7 28.9 63 -7.9 17.7 0 0
23:36 1024 30.24 853 25.19 -1.6 29 63 -7.8 18 0 0
23:37 1024 30.24 853 25.19 -1.7 29 63 -7.8 18 0 0
23:38 1024 30.24 853 25.19 -1.7 28.9 64 -7.6 18.3 0 0
23:39 1024 30.24 853 25.19 -1.8 28.7 66 -7.5 18.6 0 0
23:40 1024 30.24 853 25.19 -2 28.4 66 -7.5 18.4 0 0
23:41 1024 30.24 853 25.19 -2.2 28 66 -7.7 18.2 0 0
23:42 1024 30.24 853 25.19 -2.4 27.8 66 -7.8 17.9 0 0
23:43 1024 30.24 853 25.19 -2.4 27.6 67 -7.8 18 0 0
23:44 1024 30.24 853 25.19 -2.5 27.4 67 -7.8 18 0 0
23:45 1024 30.24 853 25.19 -2.6 27.3 67 -8 17.7 0 0
23:46 1024 30.24 853 25.19 -2.6 27.4 66 -8.2 17.3 0 0
23:47 1024 30.24 853 25.19 -2.4 27.7 65 -8.2 17.2 0 0
23:48 1024 30.24 853 25.19 -2.2 28 63 -8.4 16.8 0 0
23:49 1024 30.24 853 25.19 -2 28.4 63 -8.2 17.2 0 0
23:50 1024 30.24 853 25.19 -2 28.5 62 -8.2 17.2 0 0
23:51 1024 30.24 853 25.19 -2 28.4 63 -8.2 17.3 0 0
23:52 1024 30.24 853 25.19 -2 28.4 63 -8.2 17.3 0 0
23:53 1024 30.24 853 25.19 -2 28.4 63 -8.2 17.3 0 0
23:54 1024 30.24 853 25.19 -2 28.4 63 -8.1 17.4 0 0
23:55 1024 30.24 853 25.19 -2.1 28.3 63 -8.2 17.3 0 0
23:56 1024 30.24 853 25.19 -2.1 28.2 63 -8.2 17.2 0 0
23:57 1024 30.24 853 25.19 -2.1 28.2 64 -8.1 17.5 0 0
23:58 1024 30.24 853 25.19 -2.2 28 64 -8 17.5 0 0
23:59 1024 30.24 853 25.19 -2.3 27.8 65 -8 17.6 0 0
24:00 1024 30.24 853 25.19 -2.4 27.6 66 -8 17.6 0 0